Time,TemperatureF,DewpointF,PressureIn,WindDirection,WindDirectionDegrees,WindSpeedMPH,WindSpeedGustMPH,Humidity,HourlyPrecipIn,Conditions,Clouds,dailyrainin,SoftwareType,DateUTC
2013-02-03 00:00:00,27.4,25.6,30.00,SSE,159,0.0,0.0,93,0.00,,---,0.00,VWS V14.00,2013-02-03 05:00:00,
2013-02-03 00:01:00,27.4,25.6,30.00,SSE,159,0.0,0.0,93,0.00,,---,0.00,VWS V14.00,2013-02-03 05:01:00,
2013-02-03 00:06:00,27.4,25.6,30.00,SSE,159,0.0,0.0,93,0.00,,---,0.00,VWS V14.00,2013-02-03 05:06:00,
2013-02-03 00:11:00,27.3,25.5,29.99,SSE,159,0.0,0.0,93,0.00,,---,0.00,VWS V14.00,2013-02-03 05:11:00,
2013-02-03 00:16:00,27.1,25.4,29.99,SSE,159,0.0,0.0,93,0.00,,---,0.00,VWS V14.00,2013-02-03 05:16:00,
2013-02-03 00:17:00,27.1,25.4,29.99,SSE,159,0.0,0.0,93,0.00,,---,0.00,VWS V14.00,2013-02-03 05:17:00,
2013-02-03 00:21:00,27.0,25.2,29.99,SSE,159,0.0,0.0,93,0.00,,---,0.00,VWS V14.00,2013-02-03 05:21:00,
2013-02-03 00:22:00,27.0,25.2,29.99,SSE,159,0.0,0.0,93,0.00,,---,0.00,VWS V14.00,2013-02-03 05:22:00,
2013-02-03 00:23:00,27.0,25.2,29.99,SSE,159,0.0,0.0,93,0.00,,---,0.00,VWS V14.00,2013-02-03 05:23:00,
2013-02-03 00:26:00,26.9,25.1,29.99,SSE,159,0.0,0.0,93,0.00,,---,0.00,VWS V14.00,2013-02-03 05:26:00,
2013-02-03 00:27:00,26.9,25.1,29.99,SSE,159,0.0,0.0,93,0.00,,---,0.00,VWS V14.00,2013-02-03 05:27:00,
2013-02-03 00:28:00,26.9,25.1,29.99,SSE,159,0.0,0.0,93,0.00,,---,0.00,VWS V14.00,2013-02-03 05:28:00,
2013-02-03 00:32:00,26.9,25.1,29.98,SSE,159,0.0,0.0,93,0.00,,---,0.00,VWS V14.00,2013-02-03 05:32:00,
2013-02-03 00:33:00,26.9,25.1,29.98,SSE,159,0.0,0.0,93,0.00,,---,0.00,VWS V14.00,2013-02-03 05:33:00,
2013-02-03 00:37:00,26.8,25.0,29.98,SSE,159,0.0,0.0,93,0.00,,---,0.00,VWS V14.00,2013-02-03 05:37:00,
2013-02-03 00:38:00,26.8,25.0,29.98,SSE,159,0.0,0.0,93,0.00,,---,0.00,VWS V14.00,2013-02-03 05:38:00,
2013-02-03 00:42:00,26.7,25.0,29.98,SSE,159,0.0,0.0,93,0.00,,---,0.00,VWS V14.00,2013-02-03 05:42:00,
2013-02-03 00:43:00,26.6,24.9,29.98,SSE,159,0.0,0.0,93,0.00,,---,0.00,VWS V14.00,2013-02-03 05:43:00,
2013-02-03 00:44:00,26.6,24.9,29.98,SSE,159,0.0,0.0,93,0.00,,---,0.00,VWS V14.00,2013-02-03 05:44:00,
2013-02-03 00:47:00,26.5,24.8,29.98,SSE,159,0.0,0.0,93,0.00,,---,0.00,VWS V14.00,2013-02-03 05:47:00,
2013-02-03 00:48:00,26.5,24.8,29.98,SSE,159,0.0,0.0,93,0.00,,---,0.00,VWS V14.00,2013-02-03 05:48:00,
2013-02-03 00:49:00,26.5,24.8,29.98,SSE,159,0.0,0.0,93,0.00,,---,0.00,VWS V14.00,2013-02-03 05:49:00,
2013-02-03 00:53:00,26.4,24.6,29.98,SSE,159,0.0,0.0,93,0.00,,---,0.00,VWS V14.00,2013-02-03 05:53:00,
2013-02-03 00:54:00,26.4,24.6,29.97,SSE,159,0.0,0.0,93,0.00,,---,0.00,VWS V14.00,2013-02-03 05:54:00,
2013-02-03 00:58:00,26.3,24.6,29.97,SSE,159,0.0,0.0,93,0.00,,---,0.00,VWS V14.00,2013-02-03 05:58:00,
2013-02-03 00:59:00,26.3,24.6,29.97,SSE,159,0.0,0.0,93,0.00,,---,0.00,VWS V14.00,2013-02-03 05:59:00,
2013-02-03 01:03:00,26.2,24.7,29.97,SSE,159,0.0,0.0,94,0.00,,---,0.00,VWS V14.00,2013-02-03 06:03:00,
2013-02-03 01:04:00,26.2,24.7,29.97,SSE,159,0.0,0.0,94,0.00,,---,0.00,VWS V14.00,2013-02-03 06:04:00,
2013-02-03 01:08:00,26.1,24.6,29.97,SSE,159,0.0,0.0,94,0.00,,---,0.00,VWS V14.00,2013-02-03 06:08:00,
2013-02-03 01:09:00,26.1,24.6,29.97,SSE,159,0.0,0.0,94,0.00,,---,0.00,VWS V14.00,2013-02-03 06:09:00,
2013-02-03 01:14:00,26.0,24.5,29.97,SSE,159,0.0,0.0,94,0.00,,---,0.00,VWS V14.00,2013-02-03 06:14:00,
2013-02-03 01:15:00,26.0,24.5,29.97,SSE,159,0.0,0.0,94,0.00,,---,0.00,VWS V14.00,2013-02-03 06:15:00,
2013-02-03 01:19:00,25.9,24.4,29.97,SSE,159,0.0,0.0,94,0.00,,---,0.00,VWS V14.00,2013-02-03 06:19:00,
2013-02-03 01:20:00,25.9,24.4,29.97,SSE,159,0.0,0.0,94,0.00,,---,0.00,VWS V14.00,2013-02-03 06:20:00,
2013-02-03 01:24:00,25.8,24.3,29.97,SSE,159,0.0,0.0,94,0.00,,---,0.00,VWS V14.00,2013-02-03 06:24:00,
2013-02-03 01:25:00,25.8,24.3,29.97,SSE,159,0.0,0.0,94,0.00,,---,0.00,VWS V14.00,2013-02-03 06:25:00,
2013-02-03 01:30:00,25.6,24.1,29.97,SSE,159,0.0,0.0,94,0.00,,---,0.00,VWS V14.00,2013-02-03 06:30:00,
2013-02-03 01:31:00,25.6,24.1,29.97,SSE,159,0.0,0.0,94,0.00,,---,0.00,VWS V14.00,2013-02-03 06:31:00,
2013-02-03 01:35:00,25.4,23.9,29.97,SSE,159,0.0,0.0,94,0.00,,---,0.00,VWS V14.00,2013-02-03 06:35:00,
2013-02-03 01:36:00,25.3,23.8,29.97,SSE,159,0.0,0.0,94,0.00,,---,0.00,VWS V14.00,2013-02-03 06:36:00,
2013-02-03 01:37:00,25.4,23.9,29.97,SSE,159,0.0,0.0,94,0.00,,---,0.00,VWS V14.00,2013-02-03 06:37:00,
2013-02-03 01:40:00,25.3,23.8,29.97,SSE,159,0.0,0.0,94,0.00,,---,0.00,VWS V14.00,2013-02-03 06:40:00,
2013-02-03 01:41:00,25.2,23.7,29.97,SSE,159,0.0,0.0,94,0.00,,---,0.00,VWS V14.00,2013-02-03 06:41:00,
2013-02-03 01:42:00,25.2,23.7,29.97,SSE,159,0.0,0.0,94,0.00,,---,0.00,VWS V14.00,2013-02-03 06:42:00,
2013-02-03 01:45:00,25.2,23.7,29.97,SSE,159,0.0,0.0,94,0.00,,---,0.00,VWS V14.00,2013-02-03 06:45:00,
2013-02-03 01:46:00,25.1,23.6,29.97,SSE,159,0.0,0.0,94,0.00,,---,0.00,VWS V14.00,2013-02-03 06:46:00,
2013-02-03 01:47:00,25.1,23.6,29.97,SSE,159,0.0,0.0,94,0.00,,---,0.00,VWS V14.00,2013-02-03 06:47:00,
2013-02-03 01:51:00,25.1,23.6,29.97,SSE,159,0.0,0.0,94,0.00,,---,0.00,VWS V14.00,2013-02-03 06:51:00,
2013-02-03 01:52:00,25.1,23.6,29.96,SSE,159,0.0,0.0,94,0.00,,---,0.00,VWS V14.00,2013-02-03 06:52:00,
2013-02-03 01:56:00,25.0,23.5,29.96,SSE,159,0.0,0.0,94,0.00,,---,0.00,VWS V14.00,2013-02-03 06:56:00,
2013-02-03 01:57:00,25.0,23.5,29.96,SSE,159,0.0,0.0,94,0.00,,---,0.00,VWS V14.00,2013-02-03 06:57:00,
2013-02-03 02:01:00,25.0,23.8,29.96,SSE,159,0.0,0.0,95,0.00,,---,0.00,VWS V14.00,2013-02-03 07:01:00,
2013-02-03 02:02:00,25.0,23.8,29.96,SSE,159,0.0,0.0,95,0.00,,---,0.00,VWS V14.00,2013-02-03 07:02:00,
2013-02-03 02:03:00,25.0,23.8,29.96,SSE,159,0.0,0.0,95,0.00,,---,0.00,VWS V14.00,2013-02-03 07:03:00,
2013-02-03 02:06:00,25.0,23.5,29.96,SSE,159,0.0,0.0,94,0.00,,---,0.00,VWS V14.00,2013-02-03 07:06:00,
2013-02-03 02:07:00,24.9,23.4,29.96,SSE,159,0.0,0.0,94,0.00,,---,0.00,VWS V14.00,2013-02-03 07:07:00,
2013-02-03 02:08:00,24.9,23.4,29.96,SSE,159,0.0,0.0,94,0.00,,---,0.00,VWS V14.00,2013-02-03 07:08:00,
2013-02-03 02:12:00,24.8,23.3,29.96,SSE,159,0.0,0.0,94,0.00,,---,0.00,VWS V14.00,2013-02-03 07:12:00,
2013-02-03 02:13:00,24.8,23.3,29.96,SSE,159,0.0,0.0,94,0.00,,---,0.00,VWS V14.00,2013-02-03 07:13:00,
2013-02-03 02:17:00,24.8,23.3,29.96,SSE,159,0.0,0.0,94,0.00,,---,0.00,VWS V14.00,2013-02-03 07:17:00,
2013-02-03 02:18:00,24.8,23.3,29.96,SSE,159,0.0,0.0,94,0.00,,---,0.00,VWS V14.00,2013-02-03 07:18:00,
2013-02-03 02:19:00,24.8,23.3,29.95,SSE,159,0.0,0.0,94,0.00,,---,0.00,VWS V14.00,2013-02-03 07:19:00,
2013-02-03 02:22:00,24.8,23.6,29.95,SSE,159,0.0,0.0,95,0.00,,---,0.00,VWS V14.00,2013-02-03 07:22:00,
2013-02-03 02:23:00,24.8,23.6,29.95,SSE,159,0.0,0.0,95,0.00,,---,0.00,VWS V14.00,2013-02-03 07:23:00,
2013-02-03 02:24:00,24.8,23.6,29.95,SSE,159,0.0,0.0,95,0.00,,---,0.00,VWS V14.00,2013-02-03 07:24:00,
2013-02-03 02:27:00,24.8,23.6,29.95,SSE,159,0.0,0.0,95,0.00,,---,0.00,VWS V14.00,2013-02-03 07:27:00,
2013-02-03 02:28:00,24.8,23.6,29.95,SSE,159,0.0,0.0,95,0.00,,---,0.00,VWS V14.00,2013-02-03 07:28:00,
2013-02-03 02:29:00,24.8,23.6,29.95,SSE,159,0.0,0.0,95,0.00,,---,0.00,VWS V14.00,2013-02-03 07:29:00,
2013-02-03 02:32:00,24.8,23.6,29.95,SSE,159,0.0,0.0,95,0.00,,---,0.00,VWS V14.00,2013-02-03 07:32:00,
2013-02-03 02:34:00,24.7,23.5,29.95,SSE,159,0.0,0.0,95,0.00,,---,0.00,VWS V14.00,2013-02-03 07:34:00,
2013-02-03 02:37:00,24.7,23.5,29.95,SSE,159,0.0,0.0,95,0.00,,---,0.00,VWS V14.00,2013-02-03 07:37:00,
2013-02-03 02:39:00,24.8,23.6,29.95,SSE,159,0.0,0.0,95,0.00,,---,0.00,VWS V14.00,2013-02-03 07:39:00,
2013-02-03 02:42:00,24.8,23.6,29.95,SSE,159,0.0,0.0,95,0.00,,---,0.00,VWS V14.00,2013-02-03 07:42:00,
2013-02-03 02:44:00,24.8,23.6,29.95,SSE,159,0.0,0.0,95,0.00,,---,0.00,VWS V14.00,2013-02-03 07:44:00,
2013-02-03 02:45:00,24.8,23.6,29.95,SSE,159,0.0,0.0,95,0.00,,---,0.00,VWS V14.00,2013-02-03 07:45:00,
2013-02-03 02:48:00,24.8,23.6,29.94,SSE,159,0.0,0.0,95,0.00,,---,0.00,VWS V14.00,2013-02-03 07:48:00,
2013-02-03 02:49:00,24.8,23.6,29.94,SSE,159,0.0,0.0,95,0.00,,---,0.00,VWS V14.00,2013-02-03 07:49:00,
2013-02-03 02:50:00,24.7,23.5,29.94,SSE,159,0.0,0.0,95,0.00,,---,0.00,VWS V14.00,2013-02-03 07:50:00,
2013-02-03 02:53:00,24.7,23.5,29.94,SSE,159,0.0,0.0,95,0.00,,---,0.00,VWS V14.00,2013-02-03 07:53:00,
2013-02-03 02:54:00,24.7,23.5,29.94,SSE,159,0.0,0.0,95,0.00,,---,0.00,VWS V14.00,2013-02-03 07:54:00,
2013-02-03 02:56:00,24.6,23.4,29.94,SSE,159,0.0,0.0,95,0.00,,---,0.00,VWS V14.00,2013-02-03 07:56:00,
2013-02-03 02:59:00,24.6,23.4,29.94,SSE,159,0.0,0.0,95,0.00,,---,0.00,VWS V14.00,2013-02-03 07:59:00,
2013-02-03 03:00:00,24.6,23.4,29.94,SSE,159,0.0,0.0,95,0.00,,---,0.00,VWS V14.00,2013-02-03 08:00:00,
2013-02-03 03:01:00,24.6,23.4,29.94,SSE,159,0.0,0.0,95,0.00,,---,0.00,VWS V14.00,2013-02-03 08:01:00,
2013-02-03 03:04:00,24.5,23.3,29.94,SSE,159,0.0,0.0,95,0.00,,---,0.00,VWS V14.00,2013-02-03 08:04:00,
2013-02-03 03:05:00,24.5,23.3,29.94,SSE,159,0.0,0.0,95,0.00,,---,0.00,VWS V14.00,2013-02-03 08:05:00,
2013-02-03 03:06:00,24.5,23.3,29.94,SSE,159,0.0,0.0,95,0.00,,---,0.00,VWS V14.00,2013-02-03 08:06:00,
2013-02-03 03:09:00,24.5,23.3,29.94,SSE,159,0.0,0.0,95,0.00,,---,0.00,VWS V14.00,2013-02-03 08:09:00,
2013-02-03 03:10:00,24.5,23.3,29.94,SSE,159,0.0,0.0,95,0.00,,---,0.00,VWS V14.00,2013-02-03 08:10:00,
2013-02-03 03:11:00,24.4,23.2,29.94,SSE,159,0.0,0.0,95,0.00,,---,0.00,VWS V14.00,2013-02-03 08:11:00,
2013-02-03 03:12:00,24.4,23.2,29.94,SSE,159,0.0,0.0,95,0.00,,---,0.00,VWS V14.00,2013-02-03 08:12:00,
2013-02-03 03:14:00,24.4,22.9,29.94,SSE,159,0.0,0.0,94,0.00,,---,0.00,VWS V14.00,2013-02-03 08:14:00,
2013-02-03 03:16:00,24.3,22.8,29.94,SSE,159,0.0,0.0,94,0.00,,---,0.00,VWS V14.00,2013-02-03 08:16:00,
2013-02-03 03:17:00,24.3,22.8,29.94,SSE,159,0.0,0.0,94,0.00,,---,0.00,VWS V14.00,2013-02-03 08:17:00,
2013-02-03 03:19:00,24.2,22.7,29.93,SSE,159,0.0,0.0,94,0.00,,---,0.00,VWS V14.00,2013-02-03 08:19:00,
2013-02-03 03:21:00,24.1,22.6,29.93,SSE,159,0.0,0.0,94,0.00,,---,0.00,VWS V14.00,2013-02-03 08:21:00,
2013-02-03 03:22:00,24.1,22.6,29.93,SSE,159,0.0,0.0,94,0.00,,---,0.00,VWS V14.00,2013-02-03 08:22:00,
2013-02-03 03:24:00,24.1,22.6,29.93,SSE,159,0.0,0.0,94,0.00,,---,0.00,VWS V14.00,2013-02-03 08:24:00,
2013-02-03 03:26:00,24.0,22.5,29.93,SSE,159,0.0,0.0,94,0.00,,---,0.00,VWS V14.00,2013-02-03 08:26:00,
2013-02-03 03:27:00,24.0,22.5,29.93,SSE,159,0.0,0.0,94,0.00,,---,0.00,VWS V14.00,2013-02-03 08:27:00,
2013-02-03 03:28:00,24.0,22.5,29.93,SSE,159,0.0,0.0,94,0.00,,---,0.00,VWS V14.00,2013-02-03 08:28:00,
2013-02-03 03:31:00,23.9,22.4,29.93,SSE,159,0.0,0.0,94,0.00,,---,0.00,VWS V14.00,2013-02-03 08:31:00,
2013-02-03 03:33:00,23.9,22.4,29.93,SSE,159,0.0,0.0,94,0.00,,---,0.00,VWS V14.00,2013-02-03 08:33:00,
2013-02-03 03:36:00,23.9,22.4,29.93,SSE,159,0.0,0.0,94,0.00,,---,0.00,VWS V14.00,2013-02-03 08:36:00,
2013-02-03 03:38:00,23.8,22.3,29.93,SSE,159,0.0,0.0,94,0.00,,---,0.00,VWS V14.00,2013-02-03 08:38:00,
2013-02-03 03:42:00,23.8,22.3,29.92,SSE,159,0.0,0.0,94,0.00,,---,0.00,VWS V14.00,2013-02-03 08:42:00,
2013-02-03 03:43:00,23.8,22.3,29.92,SSE,159,0.0,0.0,94,0.00,,---,0.00,VWS V14.00,2013-02-03 08:43:00,
2013-02-03 03:47:00,23.7,22.5,29.92,SSE,159,0.0,0.0,95,0.00,,---,0.00,VWS V14.00,2013-02-03 08:47:00,
2013-02-03 03:48:00,23.7,22.5,29.92,SSE,159,0.0,0.0,95,0.00,,---,0.00,VWS V14.00,2013-02-03 08:48:00,
2013-02-03 03:49:00,23.7,22.5,29.92,SSE,159,0.0,0.0,95,0.00,,---,0.00,VWS V14.00,2013-02-03 08:49:00,
2013-02-03 03:53:00,23.7,22.5,29.92,SSE,159,0.0,0.0,95,0.00,,---,0.00,VWS V14.00,2013-02-03 08:53:00,
2013-02-03 03:54:00,23.7,22.5,29.91,SSE,159,0.0,0.0,95,0.00,,---,0.00,VWS V14.00,2013-02-03 08:54:00,
2013-02-03 03:58:00,23.7,22.5,29.92,SSE,159,0.0,0.0,95,0.00,,---,0.00,VWS V14.00,2013-02-03 08:58:00,
2013-02-03 03:59:00,23.6,22.4,29.92,SSE,159,0.0,0.0,95,0.00,,---,0.00,VWS V14.00,2013-02-03 08:59:00,
2013-02-03 04:01:00,23.6,23.6,29.91,SSE,159,0.0,0.0,100,0.00,,---,0.00,VWS V14.00,2013-02-03 09:01:00,
2013-02-03 04:03:00,23.5,22.3,29.92,SSE,159,0.0,0.0,95,0.00,,---,0.00,VWS V14.00,2013-02-03 09:03:00,
2013-02-03 04:04:00,23.5,22.3,29.92,SSE,159,0.0,0.0,95,0.00,,---,0.00,VWS V14.00,2013-02-03 09:04:00,
2013-02-03 04:06:00,23.5,22.3,29.91,SSE,159,0.0,0.0,95,0.00,,---,0.00,VWS V14.00,2013-02-03 09:06:00,
2013-02-03 04:08:00,23.4,22.2,29.91,SSE,159,0.0,0.0,95,0.00,,---,0.00,VWS V14.00,2013-02-03 09:08:00,
2013-02-03 04:09:00,23.4,22.2,29.91,SSE,159,0.0,0.0,95,0.00,,---,0.00,VWS V14.00,2013-02-03 09:09:00,
2013-02-03 04:11:00,23.3,21.8,29.91,SSE,159,0.0,0.0,94,0.00,,---,0.00,VWS V14.00,2013-02-03 09:11:00,
2013-02-03 04:13:00,23.3,21.8,29.91,SSE,159,0.0,0.0,94,0.00,,---,0.00,VWS V14.00,2013-02-03 09:13:00,
2013-02-03 04:15:00,23.3,21.8,29.92,SSE,159,0.0,0.0,94,0.00,,---,0.00,VWS V14.00,2013-02-03 09:15:00,
2013-02-03 04:16:00,23.2,21.7,29.91,SSE,159,0.0,0.0,94,0.00,,---,0.00,VWS V14.00,2013-02-03 09:16:00,
2013-02-03 04:19:00,23.2,21.7,29.91,SSE,159,0.0,0.0,94,0.00,,---,0.00,VWS V14.00,2013-02-03 09:19:00,
2013-02-03 04:20:00,23.2,22.0,29.92,SSE,159,0.0,0.0,95,0.00,,---,0.00,VWS V14.00,2013-02-03 09:20:00,
2013-02-03 04:21:00,23.2,22.0,29.92,SSE,159,0.0,0.0,95,0.00,,---,0.00,VWS V14.00,2013-02-03 09:21:00,
2013-02-03 04:24:00,23.2,22.0,29.92,SSE,159,0.0,0.0,95,0.00,,---,0.00,VWS V14.00,2013-02-03 09:24:00,
2013-02-03 04:26:00,23.2,22.0,29.92,SSE,159,0.0,0.0,95,0.00,,---,0.00,VWS V14.00,2013-02-03 09:26:00,
2013-02-03 04:29:00,23.2,22.0,29.92,SSE,159,0.0,0.0,95,0.00,,---,0.00,VWS V14.00,2013-02-03 09:29:00,
2013-02-03 04:31:00,23.2,22.0,29.92,SSE,159,0.0,0.0,95,0.00,,---,0.00,VWS V14.00,2013-02-03 09:31:00,
2013-02-03 04:32:00,23.1,21.9,29.92,SSE,159,0.0,0.0,95,0.00,,---,0.00,VWS V14.00,2013-02-03 09:32:00,
2013-02-03 04:34:00,23.1,21.9,29.92,SSE,159,0.0,0.0,95,0.00,,---,0.00,VWS V14.00,2013-02-03 09:34:00,
2013-02-03 04:35:00,23.1,21.9,29.92,SSE,159,0.0,0.0,95,0.00,,---,0.00,VWS V14.00,2013-02-03 09:35:00,
2013-02-03 04:36:00,23.0,21.8,29.92,SSE,159,0.0,0.0,95,0.00,,---,0.00,VWS V14.00,2013-02-03 09:36:00,
2013-02-03 04:38:00,23.0,21.8,29.91,SSE,159,0.0,0.0,95,0.00,,---,0.00,VWS V14.00,2013-02-03 09:38:00,
2013-02-03 04:40:00,23.0,21.8,29.92,SSE,159,0.0,0.0,95,0.00,,---,0.00,VWS V14.00,2013-02-03 09:40:00,
2013-02-03 04:41:00,23.0,21.8,29.91,SSE,159,0.0,0.0,95,0.00,,---,0.00,VWS V14.00,2013-02-03 09:41:00,
2013-02-03 04:43:00,22.9,21.7,29.91,SSE,159,0.0,0.0,95,0.00,,---,0.00,VWS V14.00,2013-02-03 09:43:00,
2013-02-03 04:45:00,22.9,21.7,29.91,SSE,159,0.0,0.0,95,0.00,,---,0.00,VWS V14.00,2013-02-03 09:45:00,
2013-02-03 04:46:00,22.9,21.7,29.91,SSE,159,0.0,0.0,95,0.00,,---,0.00,VWS V14.00,2013-02-03 09:46:00,
2013-02-03 04:49:00,22.8,21.6,29.91,SSE,159,0.0,0.0,95,0.00,,---,0.00,VWS V14.00,2013-02-03 09:49:00,
2013-02-03 04:50:00,22.8,21.6,29.91,SSE,159,0.0,0.0,95,0.00,,---,0.00,VWS V14.00,2013-02-03 09:50:00,
2013-02-03 04:52:00,22.8,21.6,29.91,SSE,159,0.0,0.0,95,0.00,,---,0.00,VWS V14.00,2013-02-03 09:52:00,
2013-02-03 04:54:00,22.8,21.6,29.91,SSE,159,0.0,0.0,95,0.00,,---,0.00,VWS V14.00,2013-02-03 09:54:00,
2013-02-03 04:56:00,22.8,21.3,29.91,SSE,159,0.0,0.0,94,0.00,,---,0.00,VWS V14.00,2013-02-03 09:56:00,
2013-02-03 04:57:00,22.7,21.2,29.91,SSE,159,0.0,0.0,94,0.00,,---,0.00,VWS V14.00,2013-02-03 09:57:00,
2013-02-03 05:00:00,22.7,21.2,29.91,SSE,159,0.0,0.0,94,0.00,,---,0.00,VWS V14.00,2013-02-03 10:00:00,
2013-02-03 05:01:00,22.7,21.2,29.91,SSE,159,0.0,0.0,94,0.00,,---,0.00,VWS V14.00,2013-02-03 10:01:00,
2013-02-03 05:02:00,22.7,21.5,29.91,SSE,159,0.0,0.0,95,0.00,,---,0.00,VWS V14.00,2013-02-03 10:02:00,
2013-02-03 05:05:00,22.7,21.5,29.91,SSE,159,0.0,0.0,95,0.00,,---,0.00,VWS V14.00,2013-02-03 10:05:00,
2013-02-03 05:06:00,22.7,21.5,29.91,SSE,159,0.0,0.0,95,0.00,,---,0.00,VWS V14.00,2013-02-03 10:06:00,
2013-02-03 05:08:00,22.8,21.6,29.91,SSE,159,0.0,0.0,95,0.00,,---,0.00,VWS V14.00,2013-02-03 10:08:00,
2013-02-03 05:10:00,22.8,21.6,29.91,SSE,159,0.0,0.0,95,0.00,,---,0.00,VWS V14.00,2013-02-03 10:10:00,
2013-02-03 05:11:00,22.8,21.6,29.92,SSE,159,0.0,0.0,95,0.00,,---,0.00,VWS V14.00,2013-02-03 10:11:00,
2013-02-03 05:13:00,22.8,21.6,29.91,SSE,159,0.0,0.0,95,0.00,,---,0.00,VWS V14.00,2013-02-03 10:13:00,
2013-02-03 05:15:00,22.8,21.6,29.91,SSE,159,0.0,0.0,95,0.00,,---,0.00,VWS V14.00,2013-02-03 10:15:00,
2013-02-03 05:17:00,22.8,21.6,29.92,SSE,159,0.0,0.0,95,0.00,,---,0.00,VWS V14.00,2013-02-03 10:17:00,
2013-02-03 05:18:00,22.8,21.6,29.91,SSE,159,0.0,0.0,95,0.00,,---,0.00,VWS V14.00,2013-02-03 10:18:00,
2013-02-03 05:20:00,22.9,21.7,29.92,SSE,159,0.0,0.0,95,0.00,,---,0.00,VWS V14.00,2013-02-03 10:20:00,
2013-02-03 05:22:00,22.9,21.7,29.92,SSE,159,0.0,0.0,95,0.00,,---,0.00,VWS V14.00,2013-02-03 10:22:00,
2013-02-03 05:23:00,22.9,21.7,29.92,SSE,159,0.0,0.0,95,0.00,,---,0.00,VWS V14.00,2013-02-03 10:23:00,
2013-02-03 05:25:00,22.9,21.7,29.92,SSE,159,0.0,0.0,95,0.00,,---,0.00,VWS V14.00,2013-02-03 10:25:00,
2013-02-03 05:27:00,23.0,21.8,29.92,SSE,159,0.0,0.0,95,0.00,,---,0.00,VWS V14.00,2013-02-03 10:27:00,
2013-02-03 05:28:00,23.0,21.8,29.92,SSE,159,0.0,0.0,95,0.00,,---,0.00,VWS V14.00,2013-02-03 10:28:00,
2013-02-03 05:29:00,23.0,21.8,29.92,SSE,159,0.0,0.0,95,0.00,,---,0.00,VWS V14.00,2013-02-03 10:29:00,
2013-02-03 05:31:00,23.0,21.8,29.92,SSE,159,0.0,0.0,95,0.00,,---,0.00,VWS V14.00,2013-02-03 10:31:00,
2013-02-03 05:32:00,23.0,21.8,29.92,SSE,159,0.0,0.0,95,0.00,,---,0.00,VWS V14.00,2013-02-03 10:32:00,
2013-02-03 05:34:00,23.0,21.8,29.92,SSE,159,0.0,0.0,95,0.00,,---,0.00,VWS V14.00,2013-02-03 10:34:00,
2013-02-03 05:35:00,23.0,21.8,29.92,SSE,159,0.0,0.0,95,0.00,,---,0.00,VWS V14.00,2013-02-03 10:35:00,
2013-02-03 05:36:00,23.0,21.8,29.92,SSE,159,0.0,0.0,95,0.00,,---,0.00,VWS V14.00,2013-02-03 10:36:00,
2013-02-03 05:37:00,23.0,21.8,29.92,SSE,159,0.0,0.0,95,0.00,,---,0.00,VWS V14.00,2013-02-03 10:37:00,
2013-02-03 05:39:00,23.0,21.8,29.92,SSE,159,0.0,0.0,95,0.00,,---,0.00,VWS V14.00,2013-02-03 10:39:00,
2013-02-03 05:40:00,23.0,21.8,29.92,SSE,159,0.0,0.0,95,0.00,,---,0.00,VWS V14.00,2013-02-03 10:40:00,
2013-02-03 05:41:00,23.0,21.8,29.92,SSE,159,0.0,0.0,95,0.00,,---,0.00,VWS V14.00,2013-02-03 10:41:00,
2013-02-03 05:43:00,23.1,21.9,29.92,SSE,159,0.0,0.0,95,0.00,,---,0.00,VWS V14.00,2013-02-03 10:43:00,
2013-02-03 05:44:00,23.1,21.9,29.92,SSE,159,0.0,0.0,95,0.00,,---,0.00,VWS V14.00,2013-02-03 10:44:00,
2013-02-03 05:45:00,23.1,21.9,29.92,SSE,159,0.0,0.0,95,0.00,,---,0.00,VWS V14.00,2013-02-03 10:45:00,
2013-02-03 05:47:00,23.1,21.9,29.92,SSE,159,0.0,0.0,95,0.00,,---,0.00,VWS V14.00,2013-02-03 10:47:00,
2013-02-03 05:48:00,23.0,21.8,29.92,SSE,159,0.0,0.0,95,0.00,,---,0.00,VWS V14.00,2013-02-03 10:48:00,
2013-02-03 05:49:00,23.0,21.8,29.92,SSE,159,0.0,0.0,95,0.00,,---,0.00,VWS V14.00,2013-02-03 10:49:00,
2013-02-03 05:51:00,23.0,21.8,29.92,SSE,159,0.0,0.0,95,0.00,,---,0.00,VWS V14.00,2013-02-03 10:51:00,
2013-02-03 05:52:00,23.0,21.8,29.92,SSE,159,0.0,0.0,95,0.00,,---,0.00,VWS V14.00,2013-02-03 10:52:00,
2013-02-03 05:53:00,23.0,21.8,29.92,SSE,159,0.0,0.0,95,0.00,,---,0.00,VWS V14.00,2013-02-03 10:53:00,
2013-02-03 05:54:00,23.0,21.8,29.92,SSE,159,0.0,0.0,95,0.00,,---,0.00,VWS V14.00,2013-02-03 10:54:00,
2013-02-03 05:56:00,22.9,21.7,29.92,SSE,159,0.0,0.0,95,0.00,,---,0.00,VWS V14.00,2013-02-03 10:56:00,
2013-02-03 05:57:00,22.9,21.7,29.92,SSE,159,0.0,0.0,95,0.00,,---,0.00,VWS V14.00,2013-02-03 10:57:00,
2013-02-03 05:59:00,22.8,21.6,29.92,SSE,159,0.0,0.0,95,0.00,,---,0.00,VWS V14.00,2013-02-03 10:59:00,
2013-02-03 06:02:00,22.8,21.6,29.92,SSE,159,0.0,0.0,95,0.00,,---,0.00,VWS V14.00,2013-02-03 11:02:00,
2013-02-03 06:04:00,22.8,21.6,29.92,SSE,159,0.0,0.0,95,0.00,,---,0.00,VWS V14.00,2013-02-03 11:04:00,
2013-02-03 06:07:00,22.7,21.5,29.92,SSE,159,0.0,0.0,95,0.00,,---,0.00,VWS V14.00,2013-02-03 11:07:00,
2013-02-03 06:09:00,22.7,21.5,29.92,SSE,159,0.0,0.0,95,0.00,,---,0.00,VWS V14.00,2013-02-03 11:09:00,
2013-02-03 06:12:00,22.7,21.5,29.92,SSE,159,0.0,0.0,95,0.00,,---,0.00,VWS V14.00,2013-02-03 11:12:00,
2013-02-03 06:13:00,22.7,21.5,29.92,SSE,159,0.0,0.0,95,0.00,,---,0.00,VWS V14.00,2013-02-03 11:13:00,
2013-02-03 06:15:00,22.7,21.5,29.92,SSE,159,0.0,0.0,95,0.00,,---,0.00,VWS V14.00,2013-02-03 11:15:00,
2013-02-03 06:17:00,22.6,21.4,29.92,SSE,159,0.0,0.0,95,0.00,,---,0.00,VWS V14.00,2013-02-03 11:17:00,
2013-02-03 06:18:00,22.6,21.4,29.92,SSE,159,0.0,0.0,95,0.00,,---,0.00,VWS V14.00,2013-02-03 11:18:00,
2013-02-03 06:20:00,22.6,21.4,29.92,SSE,159,0.0,0.0,95,0.00,,---,0.00,VWS V14.00,2013-02-03 11:20:00,
2013-02-03 06:22:00,22.6,21.4,29.92,SSE,159,0.0,0.0,95,0.00,,---,0.00,VWS V14.00,2013-02-03 11:22:00,
2013-02-03 06:23:00,22.6,21.4,29.92,SSE,159,0.0,0.0,95,0.00,,---,0.00,VWS V14.00,2013-02-03 11:23:00,
2013-02-03 06:25:00,22.6,21.4,29.92,SSE,159,0.0,0.0,95,0.00,,---,0.00,VWS V14.00,2013-02-03 11:25:00,
2013-02-03 06:26:00,22.6,21.4,29.92,SSE,159,0.0,0.0,95,0.00,,---,0.00,VWS V14.00,2013-02-03 11:26:00,
2013-02-03 06:27:00,22.5,21.3,29.92,SSE,159,0.0,0.0,95,0.00,,---,0.00,VWS V14.00,2013-02-03 11:27:00,
2013-02-03 06:29:00,22.5,21.3,29.92,SSE,159,0.0,0.0,95,0.00,,---,0.00,VWS V14.00,2013-02-03 11:29:00,
2013-02-03 06:30:00,22.5,21.3,29.92,SSE,159,0.0,0.0,95,0.00,,---,0.00,VWS V14.00,2013-02-03 11:30:00,
2013-02-03 06:31:00,22.5,21.3,29.92,SSE,159,0.0,0.0,95,0.00,,---,0.00,VWS V14.00,2013-02-03 11:31:00,
2013-02-03 06:33:00,22.4,21.2,29.92,SSE,159,0.0,0.0,95,0.00,,---,0.00,VWS V14.00,2013-02-03 11:33:00,
2013-02-03 06:34:00,22.4,21.2,29.91,SSE,159,0.0,0.0,95,0.00,,---,0.00,VWS V14.00,2013-02-03 11:34:00,
2013-02-03 06:35:00,22.4,21.2,29.91,SSE,159,0.0,0.0,95,0.00,,---,0.00,VWS V14.00,2013-02-03 11:35:00,
2013-02-03 06:36:00,22.4,21.2,29.91,SSE,159,0.0,0.0,95,0.00,,---,0.00,VWS V14.00,2013-02-03 11:36:00,
2013-02-03 06:38:00,22.4,21.2,29.91,SSE,159,0.0,0.0,95,0.00,,---,0.00,VWS V14.00,2013-02-03 11:38:00,
2013-02-03 06:39:00,22.4,21.2,29.91,SSE,159,0.0,0.0,95,0.00,,---,0.00,VWS V14.00,2013-02-03 11:39:00,
2013-02-03 06:41:00,22.4,21.2,29.91,SSE,159,0.0,0.0,95,0.00,,---,0.00,VWS V14.00,2013-02-03 11:41:00,
2013-02-03 06:42:00,22.4,21.2,29.91,SSE,159,0.0,0.0,95,0.00,,---,0.00,VWS V14.00,2013-02-03 11:42:00,
2013-02-03 06:44:00,22.4,21.2,29.92,SSE,159,0.0,0.0,95,0.00,,---,0.00,VWS V14.00,2013-02-03 11:44:00,
2013-02-03 06:46:00,22.3,21.1,29.92,SSE,159,0.0,0.0,95,0.00,,---,0.00,VWS V14.00,2013-02-03 11:46:00,
2013-02-03 06:47:00,22.3,21.1,29.92,SSE,159,0.0,0.0,95,0.00,,---,0.00,VWS V14.00,2013-02-03 11:47:00,
2013-02-03 06:49:00,22.3,20.8,29.92,SSE,159,0.0,0.0,94,0.00,,---,0.00,VWS V14.00,2013-02-03 11:49:00,
2013-02-03 06:50:00,22.3,20.8,29.92,SSE,159,0.0,0.0,94,0.00,,---,0.00,VWS V14.00,2013-02-03 11:50:00,
2013-02-03 06:51:00,22.2,20.7,29.92,SSE,159,0.0,0.0,94,0.00,,---,0.00,VWS V14.00,2013-02-03 11:51:00,
2013-02-03 06:52:00,22.2,20.7,29.92,SSE,159,0.0,0.0,94,0.00,,---,0.00,VWS V14.00,2013-02-03 11:52:00,
2013-02-03 06:54:00,22.2,20.7,29.92,SSE,159,0.0,0.0,94,0.00,,---,0.00,VWS V14.00,2013-02-03 11:54:00,
2013-02-03 06:55:00,22.2,20.7,29.92,SSE,159,0.0,0.0,94,0.00,,---,0.00,VWS V14.00,2013-02-03 11:55:00,
2013-02-03 06:56:00,22.1,20.6,29.92,SSE,159,0.0,0.0,94,0.00,,---,0.00,VWS V14.00,2013-02-03 11:56:00,
2013-02-03 06:57:00,22.1,20.6,29.92,SSE,159,0.0,0.0,94,0.00,,---,0.00,VWS V14.00,2013-02-03 11:57:00,
2013-02-03 06:59:00,22.0,20.5,29.92,SSE,159,0.0,0.0,94,0.00,,---,0.00,VWS V14.00,2013-02-03 11:59:00,
2013-02-03 07:00:00,22.0,20.5,29.92,SSE,159,0.0,0.0,94,0.00,,---,0.00,VWS V14.00,2013-02-03 12:00:00,
2013-02-03 07:02:00,21.9,20.4,29.92,SSE,159,0.0,0.0,94,0.00,,---,0.00,VWS V14.00,2013-02-03 12:02:00,
2013-02-03 07:03:00,21.9,20.4,29.92,SSE,159,0.0,0.0,94,0.00,,---,0.00,VWS V14.00,2013-02-03 12:03:00,
2013-02-03 07:05:00,21.9,20.4,29.92,SSE,159,0.0,0.0,94,0.00,,---,0.00,VWS V14.00,2013-02-03 12:05:00,
2013-02-03 07:06:00,21.8,20.3,29.92,SSE,159,0.0,0.0,94,0.00,,---,0.00,VWS V14.00,2013-02-03 12:06:00,
2013-02-03 07:07:00,21.8,20.3,29.92,SSE,159,0.0,0.0,94,0.00,,---,0.00,VWS V14.00,2013-02-03 12:07:00,
2013-02-03 07:08:00,21.8,20.3,29.92,SSE,159,0.0,0.0,94,0.00,,---,0.00,VWS V14.00,2013-02-03 12:08:00,
2013-02-03 07:10:00,21.7,20.2,29.92,SSE,159,0.0,0.0,94,0.00,,---,0.00,VWS V14.00,2013-02-03 12:10:00,
2013-02-03 07:11:00,21.7,20.2,29.92,SSE,159,0.0,0.0,94,0.00,,---,0.00,VWS V14.00,2013-02-03 12:11:00,
2013-02-03 07:12:00,21.7,20.2,29.92,SSE,159,0.0,0.0,94,0.00,,---,0.00,VWS V14.00,2013-02-03 12:12:00,
2013-02-03 07:13:00,21.7,20.2,29.92,SSE,159,0.0,0.0,94,0.00,,---,0.00,VWS V14.00,2013-02-03 12:13:00,
2013-02-03 07:16:00,21.8,20.3,29.92,SSE,159,0.0,0.0,94,0.00,,---,0.00,VWS V14.00,2013-02-03 12:16:00,
2013-02-03 07:17:00,21.8,20.6,29.92,SSE,159,0.0,0.0,95,0.00,,---,0.00,VWS V14.00,2013-02-03 12:17:00,
2013-02-03 07:18:00,21.8,20.6,29.92,SSE,159,0.0,0.0,95,0.00,,---,0.00,VWS V14.00,2013-02-03 12:18:00,
2013-02-03 07:21:00,21.8,20.6,29.92,SSE,159,0.0,0.0,95,0.00,,---,0.00,VWS V14.00,2013-02-03 12:21:00,
2013-02-03 07:23:00,21.9,20.7,29.92,SSE,159,0.0,0.0,95,0.00,,---,0.00,VWS V14.00,2013-02-03 12:23:00,
2013-02-03 07:24:00,21.9,20.7,29.92,SSE,159,0.0,0.0,95,0.00,,---,0.00,VWS V14.00,2013-02-03 12:24:00,
2013-02-03 07:26:00,21.8,20.6,29.93,SSE,159,0.0,0.0,95,0.00,,---,0.00,VWS V14.00,2013-02-03 12:26:00,
2013-02-03 07:28:00,21.9,20.7,29.92,SSE,159,0.0,0.0,95,0.00,,---,0.00,VWS V14.00,2013-02-03 12:28:00,
2013-02-03 07:29:00,21.9,20.7,29.93,SSE,159,0.0,0.0,95,0.00,,---,0.00,VWS V14.00,2013-02-03 12:29:00,
2013-02-03 07:31:00,21.8,20.6,29.93,SSE,159,0.0,0.0,95,0.00,,---,0.00,VWS V14.00,2013-02-03 12:31:00,
2013-02-03 07:33:00,21.8,20.6,29.93,SSE,159,0.0,0.0,95,0.00,,---,0.00,VWS V14.00,2013-02-03 12:33:00,
2013-02-03 07:34:00,21.8,20.6,29.93,SSE,159,0.0,0.0,95,0.00,,---,0.00,VWS V14.00,2013-02-03 12:34:00,
2013-02-03 07:37:00,21.8,20.6,29.93,SSE,159,0.0,0.0,95,0.00,,---,0.00,VWS V14.00,2013-02-03 12:37:00,
2013-02-03 07:39:00,21.8,20.6,29.93,SSE,159,0.0,0.0,95,0.00,,---,0.00,VWS V14.00,2013-02-03 12:39:00,
2013-02-03 07:40:00,21.8,20.6,29.93,SSE,159,0.0,0.0,95,0.00,,---,0.00,VWS V14.00,2013-02-03 12:40:00,
2013-02-03 07:42:00,21.8,20.6,29.93,SSE,159,0.0,0.0,95,0.00,,---,0.00,VWS V14.00,2013-02-03 12:42:00,
2013-02-03 07:44:00,21.8,20.6,29.93,SSE,159,0.0,0.0,95,0.00,,---,0.00,VWS V14.00,2013-02-03 12:44:00,
2013-02-03 07:45:00,21.8,20.6,29.93,SSE,159,0.0,0.0,95,0.00,,---,0.00,VWS V14.00,2013-02-03 12:45:00,
2013-02-03 07:47:00,21.8,20.6,29.93,SSE,159,0.0,0.0,95,0.00,,---,0.00,VWS V14.00,2013-02-03 12:47:00,
2013-02-03 07:48:00,21.8,20.6,29.93,SSE,159,0.0,0.0,95,0.00,,---,0.00,VWS V14.00,2013-02-03 12:48:00,
2013-02-03 07:49:00,21.8,20.6,29.93,SSE,159,0.0,0.0,95,0.00,,---,0.00,VWS V14.00,2013-02-03 12:49:00,
2013-02-03 07:50:00,21.9,20.7,29.93,SSE,159,0.0,0.0,95,0.00,,---,0.00,VWS V14.00,2013-02-03 12:50:00,
2013-02-03 07:52:00,21.9,20.7,29.93,SSE,159,0.0,0.0,95,0.00,,---,0.00,VWS V14.00,2013-02-03 12:52:00,
2013-02-03 07:53:00,22.0,20.8,29.93,SSE,159,0.0,0.0,95,0.00,,---,0.00,VWS V14.00,2013-02-03 12:53:00,
2013-02-03 07:54:00,22.0,20.8,29.93,SSE,159,0.0,0.0,95,0.00,,---,0.00,VWS V14.00,2013-02-03 12:54:00,
2013-02-03 07:55:00,22.0,20.8,29.93,SSE,159,0.0,0.0,95,0.00,,---,0.00,VWS V14.00,2013-02-03 12:55:00,
2013-02-03 07:57:00,22.1,20.9,29.93,SSE,159,0.0,0.0,95,0.00,,---,0.00,VWS V14.00,2013-02-03 12:57:00,
2013-02-03 07:58:00,22.1,20.9,29.93,SSE,159,0.0,0.0,95,0.00,,---,0.00,VWS V14.00,2013-02-03 12:58:00,
2013-02-03 07:59:00,22.2,21.0,29.93,SSE,159,0.0,0.0,95,0.00,,---,0.00,VWS V14.00,2013-02-03 12:59:00,
2013-02-03 08:00:00,22.2,21.0,29.93,SSE,159,0.0,0.0,95,0.00,,---,0.00,VWS V14.00,2013-02-03 13:00:00,
2013-02-03 08:02:00,22.3,21.1,29.93,SSE,159,0.0,0.0,95,0.00,,---,0.00,VWS V14.00,2013-02-03 13:02:00,
2013-02-03 08:03:00,22.3,21.1,29.93,SSE,159,0.0,0.0,95,0.00,,---,0.00,VWS V14.00,2013-02-03 13:03:00,
2013-02-03 08:05:00,22.4,21.2,29.93,SSE,159,0.0,0.0,95,0.00,,---,0.00,VWS V14.00,2013-02-03 13:05:00,
2013-02-03 08:06:00,22.4,21.2,29.93,SSE,159,0.0,0.0,95,0.00,,---,0.00,VWS V14.00,2013-02-03 13:06:00,
2013-02-03 08:08:00,22.5,21.3,29.93,SSE,159,0.0,0.0,95,0.00,,---,0.00,VWS V14.00,2013-02-03 13:08:00,
2013-02-03 08:11:00,22.6,21.4,29.93,SSE,159,0.0,0.0,95,0.00,,---,0.00,VWS V14.00,2013-02-03 13:11:00,
2013-02-03 08:13:00,22.7,21.5,29.94,SSE,159,0.0,0.0,95,0.00,,---,0.00,VWS V14.00,2013-02-03 13:13:00,
2013-02-03 08:16:00,22.8,21.6,29.94,SSE,159,0.0,0.0,95,0.00,,---,0.00,VWS V14.00,2013-02-03 13:16:00,
2013-02-03 08:18:00,22.8,21.6,29.93,SSE,159,0.0,0.0,95,0.00,,---,0.00,VWS V14.00,2013-02-03 13:18:00,
2013-02-03 08:21:00,23.0,21.8,29.93,SSE,159,0.0,0.0,95,0.00,,---,0.00,VWS V14.00,2013-02-03 13:21:00,
2013-02-03 08:23:00,23.1,21.9,29.93,SSE,159,0.0,0.0,95,0.00,,---,0.00,VWS V14.00,2013-02-03 13:23:00,
2013-02-03 08:26:00,23.2,22.2,29.94,SSE,159,0.0,0.0,96,0.00,,---,0.00,VWS V14.00,2013-02-03 13:26:00,
2013-02-03 08:27:00,23.2,22.2,29.94,SSE,159,0.0,0.0,96,0.00,,---,0.00,VWS V14.00,2013-02-03 13:27:00,
2013-02-03 08:28:00,23.3,22.3,29.93,SSE,159,0.0,0.0,96,0.00,,---,0.00,VWS V14.00,2013-02-03 13:28:00,
2013-02-03 08:31:00,23.5,22.5,29.93,SSE,159,0.0,0.0,96,0.00,,---,0.00,VWS V14.00,2013-02-03 13:31:00,
2013-02-03 08:33:00,23.6,22.6,29.93,SSE,159,0.0,0.0,96,0.00,,---,0.00,VWS V14.00,2013-02-03 13:33:00,
2013-02-03 08:34:00,23.6,22.6,29.93,SSE,159,0.0,0.0,96,0.00,,---,0.00,VWS V14.00,2013-02-03 13:34:00,
2013-02-03 08:36:00,23.8,22.8,29.93,SSE,159,0.0,0.0,96,0.00,,---,0.00,VWS V14.00,2013-02-03 13:36:00,
2013-02-03 08:38:00,23.9,22.9,29.93,SSE,159,0.0,0.0,96,0.00,,---,0.00,VWS V14.00,2013-02-03 13:38:00,
2013-02-03 08:39:00,23.9,22.9,29.93,SSE,159,0.0,0.0,96,0.00,,---,0.00,VWS V14.00,2013-02-03 13:39:00,
2013-02-03 08:41:00,24.1,23.1,29.93,SSE,159,0.0,0.0,96,0.00,,---,0.00,VWS V14.00,2013-02-03 13:41:00,
2013-02-03 08:43:00,24.3,23.3,29.93,SSE,159,0.0,0.0,96,0.00,,---,0.00,VWS V14.00,2013-02-03 13:43:00,
2013-02-03 08:44:00,24.4,23.4,29.93,SSE,159,0.0,0.0,96,0.00,,---,0.00,VWS V14.00,2013-02-03 13:44:00,
2013-02-03 08:46:00,24.5,23.5,29.93,SSE,159,0.0,0.0,96,0.00,,---,0.00,VWS V14.00,2013-02-03 13:46:00,
2013-02-03 08:47:00,24.7,23.7,29.93,SSE,159,0.0,0.0,96,0.00,,---,0.00,VWS V14.00,2013-02-03 13:47:00,
2013-02-03 08:48:00,24.8,23.8,29.93,SSE,159,0.0,0.0,96,0.00,,---,0.00,VWS V14.00,2013-02-03 13:48:00,
2013-02-03 08:49:00,24.9,23.9,29.93,SSE,159,0.0,0.0,96,0.00,,---,0.00,VWS V14.00,2013-02-03 13:49:00,
2013-02-03 08:52:00,25.2,24.2,29.93,SSE,159,0.0,0.0,96,0.00,,---,0.00,VWS V14.00,2013-02-03 13:52:00,
2013-02-03 08:53:00,25.3,24.3,29.93,SSE,159,0.0,0.0,96,0.00,,---,0.00,VWS V14.00,2013-02-03 13:53:00,
2013-02-03 08:54:00,25.4,24.7,29.93,SSE,159,0.0,0.0,97,0.00,,---,0.00,VWS V14.00,2013-02-03 13:54:00,
2013-02-03 08:57:00,25.6,24.9,29.93,SSE,159,0.0,0.0,97,0.00,,---,0.00,VWS V14.00,2013-02-03 13:57:00,
2013-02-03 08:58:00,25.7,24.7,29.93,SSE,159,0.0,0.0,96,0.00,,---,0.00,VWS V14.00,2013-02-03 13:58:00,
2013-02-03 09:00:00,25.8,24.8,29.93,SSE,159,0.0,0.0,96,0.00,,---,0.00,VWS V14.00,2013-02-03 14:00:00,
2013-02-03 09:02:00,26.0,25.3,29.93,SSE,159,0.0,0.0,97,0.00,,---,0.00,VWS V14.00,2013-02-03 14:02:00,
2013-02-03 09:03:00,26.0,25.3,29.93,SSE,159,0.0,0.0,97,0.00,,---,0.00,VWS V14.00,2013-02-03 14:03:00,
2013-02-03 09:04:00,26.1,25.1,29.94,SSE,159,0.0,0.0,96,0.00,,---,0.00,VWS V14.00,2013-02-03 14:04:00,
2013-02-03 09:06:00,26.3,25.3,29.93,SSE,159,0.0,0.0,96,0.00,,---,0.00,VWS V14.00,2013-02-03 14:06:00,
2013-02-03 09:07:00,26.4,25.7,29.93,SSE,159,0.0,0.0,97,0.00,,---,0.00,VWS V14.00,2013-02-03 14:07:00,
2013-02-03 09:08:00,26.4,25.7,29.93,SSE,159,0.0,0.0,97,0.00,,---,0.00,VWS V14.00,2013-02-03 14:08:00,
2013-02-03 09:09:00,26.5,25.5,29.93,SSE,159,0.0,0.0,96,0.00,,---,0.00,VWS V14.00,2013-02-03 14:09:00,
2013-02-03 09:11:00,26.7,25.7,29.93,SSE,159,0.0,0.0,96,0.00,,---,0.00,VWS V14.00,2013-02-03 14:11:00,
2013-02-03 09:13:00,26.8,25.8,29.93,SSE,159,0.0,0.0,96,0.00,,---,0.00,VWS V14.00,2013-02-03 14:13:00,
2013-02-03 09:14:00,26.8,25.8,29.93,SSE,159,0.0,0.0,96,0.00,,---,0.00,VWS V14.00,2013-02-03 14:14:00,
2013-02-03 09:17:00,27.0,26.0,29.93,SSE,159,0.0,0.0,96,0.00,,---,0.00,VWS V14.00,2013-02-03 14:17:00,
2013-02-03 09:18:00,27.1,26.1,29.93,SSE,159,0.0,0.0,96,0.00,,---,0.00,VWS V14.00,2013-02-03 14:18:00,
2013-02-03 09:20:00,27.2,26.2,29.93,SSE,159,0.0,0.0,96,0.00,,---,0.00,VWS V14.00,2013-02-03 14:20:00,
2013-02-03 09:22:00,27.3,26.3,29.93,SSE,159,0.0,0.0,96,0.00,,---,0.00,VWS V14.00,2013-02-03 14:22:00,
2013-02-03 09:23:00,27.4,26.4,29.93,SSE,159,0.0,0.0,96,0.00,,---,0.00,VWS V14.00,2013-02-03 14:23:00,
2013-02-03 09:24:00,27.4,26.4,29.93,SSE,159,0.0,0.0,96,0.00,,---,0.00,VWS V14.00,2013-02-03 14:24:00,
2013-02-03 09:25:00,27.5,26.5,29.93,SSE,159,0.0,0.0,96,0.00,,---,0.00,VWS V14.00,2013-02-03 14:25:00,
2013-02-03 09:27:00,27.6,26.6,29.93,SSE,159,0.0,0.0,96,0.00,,---,0.00,VWS V14.00,2013-02-03 14:27:00,
2013-02-03 09:28:00,27.6,26.6,29.93,SSE,159,0.0,0.0,96,0.00,,---,0.00,VWS V14.00,2013-02-03 14:28:00,
2013-02-03 09:29:00,27.7,26.7,29.93,SSE,159,0.0,0.0,96,0.00,,---,0.00,VWS V14.00,2013-02-03 14:29:00,
2013-02-03 09:30:00,27.7,26.7,29.93,SSE,159,0.0,0.0,96,0.00,,---,0.00,VWS V14.00,2013-02-03 14:30:00,
2013-02-03 09:32:00,27.8,26.8,29.93,SSE,159,0.0,0.0,96,0.00,,---,0.00,VWS V14.00,2013-02-03 14:32:00,
2013-02-03 09:33:00,27.9,26.7,29.93,SSE,159,0.0,0.0,95,0.00,,---,0.00,VWS V14.00,2013-02-03 14:33:00,
2013-02-03 09:34:00,27.9,26.7,29.93,SSE,159,0.0,0.0,95,0.00,,---,0.00,VWS V14.00,2013-02-03 14:34:00,
2013-02-03 09:35:00,28.0,27.0,29.93,SSE,159,0.0,0.0,96,0.00,,---,0.00,VWS V14.00,2013-02-03 14:35:00,
2013-02-03 09:37:00,28.1,27.1,29.93,SSE,159,0.0,0.0,96,0.00,,---,0.00,VWS V14.00,2013-02-03 14:37:00,
2013-02-03 09:38:00,28.2,27.0,29.93,SSE,159,0.0,0.0,95,0.00,,---,0.00,VWS V14.00,2013-02-03 14:38:00,
2013-02-03 09:39:00,28.2,27.0,29.93,SSE,159,0.0,0.0,95,0.00,,---,0.00,VWS V14.00,2013-02-03 14:39:00,
2013-02-03 09:41:00,28.3,27.0,29.93,SSE,159,0.0,0.0,95,0.00,,---,0.00,VWS V14.00,2013-02-03 14:41:00,
2013-02-03 09:42:00,28.4,27.1,29.93,SSE,159,0.0,0.0,95,0.00,,---,0.00,VWS V14.00,2013-02-03 14:42:00,
2013-02-03 09:44:00,28.5,27.2,29.93,SSE,159,0.0,0.0,95,0.00,,---,0.00,VWS V14.00,2013-02-03 14:44:00,
2013-02-03 09:46:00,28.6,27.4,29.93,SSE,159,0.0,0.0,95,0.00,,---,0.00,VWS V14.00,2013-02-03 14:46:00,
2013-02-03 09:47:00,28.7,27.5,29.92,SSE,159,0.0,0.0,95,0.00,,---,0.00,VWS V14.00,2013-02-03 14:47:00,
2013-02-03 09:49:00,28.8,27.5,29.92,SSE,159,0.0,0.0,95,0.00,,---,0.00,VWS V14.00,2013-02-03 14:49:00,
2013-02-03 09:51:00,28.9,27.4,29.92,SSE,159,0.0,0.0,94,0.00,,---,0.00,VWS V14.00,2013-02-03 14:51:00,
2013-02-03 09:52:00,29.0,27.5,29.92,SSE,159,0.0,0.0,94,0.00,,---,0.00,VWS V14.00,2013-02-03 14:52:00,
2013-02-03 09:54:00,29.1,27.6,29.92,SSE,159,0.0,0.0,94,0.00,,---,0.00,VWS V14.00,2013-02-03 14:54:00,
2013-02-03 09:55:00,29.1,27.6,29.92,SSE,159,0.0,0.0,94,0.00,,---,0.00,VWS V14.00,2013-02-03 14:55:00,
2013-02-03 09:56:00,29.2,27.7,29.92,SSE,159,0.0,0.0,94,0.00,,---,0.00,VWS V14.00,2013-02-03 14:56:00,
2013-02-03 09:58:00,29.3,27.5,29.92,SSE,159,0.0,0.0,93,0.00,,---,0.00,VWS V14.00,2013-02-03 14:58:00,
2013-02-03 09:59:00,29.3,27.5,29.92,SSE,159,0.0,0.0,93,0.00,,---,0.00,VWS V14.00,2013-02-03 14:59:00,
2013-02-03 10:00:00,29.3,27.5,29.92,SSE,159,0.0,0.0,93,0.00,,---,0.00,VWS V14.00,2013-02-03 15:00:00,
2013-02-03 10:01:00,29.4,27.6,29.92,SSE,159,0.0,0.0,93,0.00,,---,0.00,VWS V14.00,2013-02-03 15:01:00,
2013-02-03 10:03:00,29.4,27.6,29.92,SSE,159,0.0,0.0,93,0.00,,---,0.00,VWS V14.00,2013-02-03 15:03:00,
2013-02-03 10:05:00,29.4,27.4,29.92,SSE,159,0.0,0.0,92,0.00,,---,0.00,VWS V14.00,2013-02-03 15:05:00,
2013-02-03 10:07:00,29.4,27.4,29.92,SSE,159,0.0,0.0,92,0.00,,---,0.00,VWS V14.00,2013-02-03 15:07:00,
2013-02-03 10:08:00,29.4,27.4,29.92,SSE,159,0.0,0.0,92,0.00,,---,0.00,VWS V14.00,2013-02-03 15:08:00,
2013-02-03 10:10:00,29.4,27.4,29.92,SSE,159,0.0,0.0,92,0.00,,---,0.00,VWS V14.00,2013-02-03 15:10:00,
2013-02-03 10:11:00,29.4,27.4,29.92,SSE,159,0.0,0.0,92,0.00,,---,0.00,VWS V14.00,2013-02-03 15:11:00,
2013-02-03 10:12:00,29.5,27.5,29.92,SSE,159,0.0,0.0,92,0.00,,---,0.00,VWS V14.00,2013-02-03 15:12:00,
2013-02-03 10:13:00,29.5,27.5,29.92,SSE,159,0.0,0.0,92,0.00,,---,0.00,VWS V14.00,2013-02-03 15:13:00,
2013-02-03 10:15:00,29.4,27.1,29.92,SSE,159,0.0,0.0,91,0.00,,---,0.00,VWS V14.00,2013-02-03 15:15:00,
2013-02-03 10:16:00,29.4,27.1,29.92,SSE,159,0.0,0.0,91,0.00,,---,0.00,VWS V14.00,2013-02-03 15:16:00,
2013-02-03 10:17:00,29.4,27.1,29.92,SSE,159,0.0,0.0,91,0.00,,---,0.00,VWS V14.00,2013-02-03 15:17:00,
2013-02-03 10:18:00,29.4,27.1,29.92,SSE,159,0.0,0.0,91,0.00,,---,0.00,VWS V14.00,2013-02-03 15:18:00,
2013-02-03 10:21:00,29.4,27.1,29.92,SSE,159,0.0,0.0,91,0.00,,---,0.00,VWS V14.00,2013-02-03 15:21:00,
2013-02-03 10:23:00,29.4,27.1,29.92,SSE,159,0.0,0.0,91,0.00,,---,0.00,VWS V14.00,2013-02-03 15:23:00,
2013-02-03 10:24:00,29.4,27.1,29.92,SSE,159,0.0,0.0,91,0.00,,---,0.00,VWS V14.00,2013-02-03 15:24:00,
2013-02-03 10:26:00,29.4,27.1,29.92,SSE,159,0.0,0.0,91,0.00,,---,0.00,VWS V14.00,2013-02-03 15:26:00,
2013-02-03 10:28:00,29.5,27.2,29.91,SSE,159,0.0,0.0,91,0.00,,---,0.00,VWS V14.00,2013-02-03 15:28:00,
2013-02-03 10:29:00,29.5,26.9,29.91,SSE,159,0.0,0.0,90,0.00,,---,0.00,VWS V14.00,2013-02-03 15:29:00,
2013-02-03 10:31:00,29.5,26.9,29.91,SSE,159,0.0,0.0,90,0.00,,---,0.00,VWS V14.00,2013-02-03 15:31:00,
2013-02-03 10:33:00,29.6,27.0,29.91,SSE,159,0.0,0.0,90,0.00,,---,0.00,VWS V14.00,2013-02-03 15:33:00,
2013-02-03 10:35:00,29.6,26.8,29.91,SSE,159,0.0,0.0,89,0.00,,---,0.00,VWS V14.00,2013-02-03 15:35:00,
2013-02-03 10:36:00,29.6,26.8,29.91,SSE,159,0.0,0.0,89,0.00,,---,0.00,VWS V14.00,2013-02-03 15:36:00,
2013-02-03 10:37:00,29.6,26.8,29.91,SSE,159,0.0,0.0,89,0.00,,---,0.00,VWS V14.00,2013-02-03 15:37:00,
2013-02-03 10:39:00,29.6,26.8,29.91,SSE,159,0.0,0.0,89,0.00,,---,0.00,VWS V14.00,2013-02-03 15:39:00,
2013-02-03 10:40:00,29.6,26.5,29.91,SSE,159,0.0,0.0,88,0.00,,---,0.00,VWS V14.00,2013-02-03 15:40:00,
2013-02-03 10:41:00,29.6,26.5,29.91,SSE,159,0.0,0.0,88,0.00,,---,0.00,VWS V14.00,2013-02-03 15:41:00,
2013-02-03 10:42:00,29.6,26.5,29.91,SSE,159,0.0,0.0,88,0.00,,---,0.00,VWS V14.00,2013-02-03 15:42:00,
2013-02-03 10:44:00,29.6,26.5,29.91,SSE,159,0.0,0.0,88,0.00,,---,0.00,VWS V14.00,2013-02-03 15:44:00,
2013-02-03 10:46:00,29.6,26.5,29.91,SSE,159,0.0,0.0,88,0.00,,---,0.00,VWS V14.00,2013-02-03 15:46:00,
2013-02-03 10:47:00,29.7,26.6,29.91,SSE,159,0.0,0.0,88,0.00,,---,0.00,VWS V14.00,2013-02-03 15:47:00,
2013-02-03 10:50:00,29.8,26.7,29.91,SSE,159,0.0,0.0,88,0.00,,---,0.00,VWS V14.00,2013-02-03 15:50:00,
2013-02-03 10:51:00,29.8,26.7,29.90,SSE,159,0.0,0.0,88,0.00,,---,0.00,VWS V14.00,2013-02-03 15:51:00,
2013-02-03 10:52:00,29.8,26.7,29.90,SSE,159,0.0,1.0,88,0.00,,---,0.00,VWS V14.00,2013-02-03 15:52:00,
2013-02-03 10:55:00,29.8,26.7,29.90,SSE,159,0.0,1.0,88,0.00,,---,0.00,VWS V14.00,2013-02-03 15:55:00,
2013-02-03 10:56:00,29.9,26.5,29.90,SSE,159,0.0,1.0,87,0.00,,---,0.00,VWS V14.00,2013-02-03 15:56:00,
2013-02-03 10:58:00,29.9,26.8,29.90,SSE,159,0.0,1.0,88,0.00,,---,0.00,VWS V14.00,2013-02-03 15:58:00,
2013-02-03 11:00:00,30.0,26.9,29.90,SSE,159,0.0,1.0,88,0.00,,---,0.00,VWS V14.00,2013-02-03 16:00:00,
2013-02-03 11:01:00,30.0,26.6,29.90,SSE,159,0.0,1.0,87,0.00,,---,0.00,VWS V14.00,2013-02-03 16:01:00,
2013-02-03 11:03:00,30.0,26.6,29.90,SSE,159,0.0,1.0,87,0.00,,---,0.00,VWS V14.00,2013-02-03 16:03:00,
2013-02-03 11:05:00,30.0,26.6,29.90,SSE,159,0.0,1.0,87,0.00,,---,0.00,VWS V14.00,2013-02-03 16:05:00,
2013-02-03 11:06:00,30.1,26.7,29.90,SSE,159,0.0,1.0,87,0.00,,---,0.00,VWS V14.00,2013-02-03 16:06:00,
2013-02-03 11:07:00,30.0,26.6,29.90,SSE,159,0.0,1.0,87,0.00,,---,0.00,VWS V14.00,2013-02-03 16:07:00,
2013-02-03 11:08:00,30.0,26.6,29.90,SSE,159,0.0,1.0,87,0.00,,---,0.00,VWS V14.00,2013-02-03 16:08:00,
2013-02-03 11:10:00,30.0,26.6,29.90,SSE,159,0.0,1.0,87,0.00,,---,0.00,VWS V14.00,2013-02-03 16:10:00,
2013-02-03 11:11:00,30.0,26.6,29.90,SSE,159,0.0,1.0,87,0.00,,---,0.00,VWS V14.00,2013-02-03 16:11:00,
2013-02-03 11:12:00,30.0,26.6,29.90,SSE,159,0.0,1.0,87,0.00,,---,0.00,VWS V14.00,2013-02-03 16:12:00,
2013-02-03 11:13:00,30.0,26.3,29.90,SSE,159,0.0,1.0,86,0.00,,---,0.00,VWS V14.00,2013-02-03 16:13:00,
2013-02-03 11:15:00,30.1,28.1,29.90,SSE,159,0.0,1.0,92,0.00,,---,0.00,VWS V14.00,2013-02-03 16:15:00,
2013-02-03 11:17:00,30.1,28.1,29.90,SSE,159,0.0,1.0,92,0.00,,---,0.00,VWS V14.00,2013-02-03 16:17:00,
2013-02-03 11:18:00,30.2,26.2,29.90,SSE,159,0.0,1.0,85,0.00,,---,0.00,VWS V14.00,2013-02-03 16:18:00,
2013-02-03 11:20:00,30.3,26.3,29.90,SSE,159,0.0,1.0,85,0.00,,---,0.00,VWS V14.00,2013-02-03 16:20:00,
2013-02-03 11:23:00,30.4,26.4,29.90,SSE,159,0.0,1.0,85,0.00,,---,0.00,VWS V14.00,2013-02-03 16:23:00,
2013-02-03 11:24:00,30.5,26.5,29.90,SSE,159,0.0,1.0,85,0.00,,---,0.00,VWS V14.00,2013-02-03 16:24:00,
2013-02-03 11:26:00,30.6,26.6,29.90,SSE,159,0.0,1.0,85,0.00,,---,0.00,VWS V14.00,2013-02-03 16:26:00,
2013-02-03 11:28:00,30.8,26.3,29.89,SSE,159,0.0,1.0,83,0.00,,---,0.00,VWS V14.00,2013-02-03 16:28:00,
2013-02-03 11:29:00,30.8,26.3,29.89,SSE,159,0.0,1.0,83,0.00,,---,0.00,VWS V14.00,2013-02-03 16:29:00,
2013-02-03 11:31:00,31.0,26.5,29.89,SSE,159,0.0,1.0,83,0.00,,---,0.00,VWS V14.00,2013-02-03 16:31:00,
2013-02-03 11:33:00,31.2,26.6,29.89,SSE,159,0.0,1.0,83,0.00,,---,0.00,VWS V14.00,2013-02-03 16:33:00,
2013-02-03 11:34:00,31.3,26.8,29.89,SSE,159,0.0,1.0,83,0.00,,---,0.00,VWS V14.00,2013-02-03 16:34:00,
2013-02-03 11:37:00,31.5,26.4,29.89,SSE,161,0.0,1.0,81,0.00,,---,0.00,VWS V14.00,2013-02-03 16:37:00,
2013-02-03 11:38:00,31.6,26.8,29.89,NNW,342,1.0,1.0,82,0.00,,---,0.00,VWS V14.00,2013-02-03 16:38:00,
2013-02-03 11:39:00,31.6,26.8,29.89,NNW,342,0.0,2.0,82,0.00,,---,0.00,VWS V14.00,2013-02-03 16:39:00,
2013-02-03 11:43:00,31.6,26.1,29.88,NNW,342,0.0,2.0,80,0.00,,---,0.00,VWS V14.00,2013-02-03 16:43:00,
2013-02-03 11:44:00,31.6,25.9,29.88,NNW,342,0.0,2.0,79,0.00,,---,0.00,VWS V14.00,2013-02-03 16:44:00,
2013-02-03 11:48:00,31.7,25.9,29.88,NNW,342,0.0,2.0,79,0.00,,---,0.00,VWS V14.00,2013-02-03 16:48:00,
2013-02-03 11:49:00,31.7,25.9,29.88,NNW,342,0.0,2.0,79,0.00,,---,0.00,VWS V14.00,2013-02-03 16:49:00,
2013-02-03 11:50:00,31.7,25.9,29.88,NNW,342,0.0,2.0,79,0.00,,---,0.00,VWS V14.00,2013-02-03 16:50:00,
2013-02-03 11:53:00,31.7,26.2,29.88,NNW,342,0.0,2.0,80,0.00,,---,0.00,VWS V14.00,2013-02-03 16:53:00,
2013-02-03 11:54:00,31.8,26.4,29.88,NNW,342,0.0,2.0,80,0.00,,---,0.00,VWS V14.00,2013-02-03 16:54:00,
2013-02-03 11:55:00,31.8,26.4,29.88,NNW,342,0.0,2.0,80,0.00,,---,0.00,VWS V14.00,2013-02-03 16:55:00,
2013-02-03 11:58:00,31.9,26.4,29.88,NNW,342,0.0,2.0,80,0.00,,---,0.00,VWS V14.00,2013-02-03 16:58:00,
2013-02-03 11:59:00,32.0,26.5,29.88,NNW,342,0.0,2.0,80,0.00,,---,0.00,VWS V14.00,2013-02-03 16:59:00,
2013-02-03 12:00:00,32.0,26.5,29.88,NNW,342,0.0,2.0,80,0.00,,---,0.00,VWS V14.00,2013-02-03 17:00:00,
2013-02-03 12:03:00,32.2,26.7,29.88,NNW,342,2.0,2.0,80,0.00,,---,0.00,VWS V14.00,2013-02-03 17:03:00,
2013-02-03 12:04:00,32.2,26.7,29.88,NNW,342,0.0,2.0,80,0.00,,---,0.00,VWS V14.00,2013-02-03 17:04:00,
2013-02-03 12:06:00,32.3,26.5,29.88,NNW,342,0.0,2.0,79,0.00,,---,0.00,VWS V14.00,2013-02-03 17:06:00,
2013-02-03 12:08:00,32.3,26.2,29.88,NNW,342,0.0,0.0,78,0.01,,---,0.01,VWS V14.00,2013-02-03 17:08:00,
2013-02-03 12:09:00,32.3,26.2,29.88,NNW,342,1.0,1.0,78,0.01,,---,0.01,VWS V14.00,2013-02-03 17:09:00,
2013-02-03 12:10:00,32.3,26.2,29.88,NNW,342,0.0,1.0,78,0.01,,---,0.01,VWS V14.00,2013-02-03 17:10:00,
2013-02-03 12:11:00,32.3,26.2,29.88,NNW,342,0.0,1.0,78,0.01,,---,0.01,VWS V14.00,2013-02-03 17:11:00,
2013-02-03 12:14:00,32.4,26.3,29.87,NNW,342,0.0,1.0,78,0.01,,---,0.01,VWS V14.00,2013-02-03 17:14:00,
2013-02-03 12:15:00,32.4,26.0,29.87,NNW,342,0.0,1.0,77,0.01,,---,0.01,VWS V14.00,2013-02-03 17:15:00,
2013-02-03 12:16:00,32.4,26.3,29.87,NNW,342,0.0,1.0,78,0.01,,---,0.01,VWS V14.00,2013-02-03 17:16:00,
2013-02-03 12:19:00,32.5,26.4,29.87,NNW,342,0.0,2.0,78,0.01,,---,0.01,VWS V14.00,2013-02-03 17:19:00,
2013-02-03 12:20:00,32.5,26.4,29.87,NNW,342,0.0,2.0,78,0.01,,---,0.01,VWS V14.00,2013-02-03 17:20:00,
2013-02-03 12:21:00,32.5,26.4,29.87,NNW,342,0.0,2.0,78,0.01,,---,0.01,VWS V14.00,2013-02-03 17:21:00,
2013-02-03 12:24:00,32.5,26.1,29.87,WNW,283,0.0,2.0,77,0.01,,---,0.01,VWS V14.00,2013-02-03 17:24:00,
2013-02-03 12:25:00,32.5,26.1,29.87,WNW,283,0.0,2.0,77,0.01,,---,0.01,VWS V14.00,2013-02-03 17:25:00,
2013-02-03 12:26:00,32.5,26.1,29.87,WNW,283,0.0,2.0,77,0.01,,---,0.01,VWS V14.00,2013-02-03 17:26:00,
2013-02-03 12:30:00,32.6,26.5,29.87,WNW,283,0.0,2.0,78,0.01,,---,0.01,VWS V14.00,2013-02-03 17:30:00,
2013-02-03 12:31:00,32.6,26.2,29.87,WNW,283,0.0,2.0,77,0.01,,---,0.01,VWS V14.00,2013-02-03 17:31:00,
2013-02-03 12:35:00,32.7,26.9,29.86,WNW,289,0.0,2.0,79,0.01,,---,0.01,VWS V14.00,2013-02-03 17:35:00,
2013-02-03 12:36:00,32.8,27.0,29.86,WNW,289,1.0,1.0,79,0.01,,---,0.01,VWS V14.00,2013-02-03 17:36:00,
2013-02-03 12:37:00,32.8,27.0,29.86,WNW,292,0.0,1.0,79,0.01,,---,0.01,VWS V14.00,2013-02-03 17:37:00,
2013-02-03 12:40:00,32.9,27.1,29.86,WNW,296,0.0,1.0,79,0.01,,---,0.01,VWS V14.00,2013-02-03 17:40:00,
2013-02-03 12:41:00,32.9,27.1,29.86,WNW,296,0.0,1.0,79,0.01,,---,0.01,VWS V14.00,2013-02-03 17:41:00,
2013-02-03 12:42:00,32.9,27.4,29.86,WNW,296,0.0,1.0,80,0.01,,---,0.01,VWS V14.00,2013-02-03 17:42:00,
2013-02-03 12:45:00,33.0,27.5,29.86,North,360,0.0,1.0,80,0.01,,---,0.01,VWS V14.00,2013-02-03 17:45:00,
2013-02-03 12:46:00,33.0,27.5,29.86,North,5,0.0,1.0,80,0.01,,---,0.01,VWS V14.00,2013-02-03 17:46:00,
2013-02-03 12:47:00,33.0,27.2,29.86,North,5,0.0,1.0,79,0.01,,---,0.01,VWS V14.00,2013-02-03 17:47:00,
2013-02-03 12:48:00,33.0,27.2,29.86,North,5,0.0,1.0,79,0.01,,---,0.01,VWS V14.00,2013-02-03 17:48:00,
2013-02-03 12:51:00,33.1,27.0,29.85,North,360,0.0,1.0,78,0.01,,---,0.01,VWS V14.00,2013-02-03 17:51:00,
2013-02-03 12:52:00,33.1,26.7,29.85,North,5,0.0,2.0,77,0.01,,---,0.01,VWS V14.00,2013-02-03 17:52:00,
2013-02-03 12:53:00,33.1,27.0,29.85,North,5,0.0,2.0,78,0.01,,---,0.01,VWS V14.00,2013-02-03 17:53:00,
2013-02-03 12:56:00,33.1,27.0,29.85,North,5,0.0,2.0,78,0.01,,---,0.01,VWS V14.00,2013-02-03 17:56:00,
2013-02-03 12:57:00,33.1,27.0,29.85,North,360,0.0,2.0,78,0.01,,---,0.01,VWS V14.00,2013-02-03 17:57:00,
2013-02-03 12:58:00,33.1,27.0,29.85,North,360,0.0,2.0,78,0.01,,---,0.01,VWS V14.00,2013-02-03 17:58:00,
2013-02-03 13:01:00,33.1,27.0,29.85,NNW,348,0.0,2.0,78,0.01,,---,0.01,VWS V14.00,2013-02-03 18:01:00,
2013-02-03 13:02:00,33.1,26.7,29.85,NNW,348,0.0,2.0,77,0.01,,---,0.01,VWS V14.00,2013-02-03 18:02:00,
2013-02-03 13:03:00,33.0,26.6,29.85,NNW,348,0.0,2.0,77,0.01,,---,0.01,VWS V14.00,2013-02-03 18:03:00,
2013-02-03 13:06:00,33.0,26.6,29.84,NNW,348,0.0,0.0,77,0.01,,---,0.01,VWS V14.00,2013-02-03 18:06:00,
2013-02-03 13:07:00,33.0,26.6,29.85,NNW,348,0.0,0.0,77,0.01,,---,0.01,VWS V14.00,2013-02-03 18:07:00,
2013-02-03 13:08:00,33.0,26.6,29.84,NNW,348,0.0,0.0,77,0.01,,---,0.01,VWS V14.00,2013-02-03 18:08:00,
2013-02-03 13:12:00,33.0,26.6,29.84,NNW,348,0.0,0.0,77,0.01,,---,0.01,VWS V14.00,2013-02-03 18:12:00,
2013-02-03 13:13:00,33.0,26.6,29.84,NNW,348,0.0,0.0,77,0.01,,---,0.01,VWS V14.00,2013-02-03 18:13:00,
2013-02-03 13:17:00,33.1,27.0,29.84,NNW,348,0.0,0.0,78,0.01,,---,0.01,VWS V14.00,2013-02-03 18:17:00,
2013-02-03 13:18:00,33.2,27.4,29.84,ESE,104,0.0,0.0,79,0.01,,---,0.01,VWS V14.00,2013-02-03 18:18:00,
2013-02-03 13:19:00,33.2,27.4,29.84,ESE,104,0.0,0.0,79,0.01,,---,0.01,VWS V14.00,2013-02-03 18:19:00,
2013-02-03 13:22:00,33.3,27.2,29.84,ESE,105,1.0,1.0,78,0.01,,---,0.01,VWS V14.00,2013-02-03 18:22:00,
2013-02-03 13:24:00,33.2,26.8,29.84,WNW,284,0.0,1.0,77,0.01,,---,0.01,VWS V14.00,2013-02-03 18:24:00,
2013-02-03 13:27:00,33.3,26.6,29.84,WNW,284,0.0,1.0,76,0.01,,---,0.01,VWS V14.00,2013-02-03 18:27:00,
2013-02-03 13:28:00,33.3,26.6,29.84,WNW,284,0.0,1.0,76,0.01,,---,0.01,VWS V14.00,2013-02-03 18:28:00,
2013-02-03 13:29:00,33.3,26.9,29.84,WNW,284,0.0,1.0,77,0.01,,---,0.01,VWS V14.00,2013-02-03 18:29:00,
2013-02-03 13:33:00,33.2,26.5,29.84,SSE,157,0.0,2.0,76,0.01,,---,0.01,VWS V14.00,2013-02-03 18:33:00,
2013-02-03 13:34:00,33.2,26.5,29.84,SSE,157,0.0,2.0,76,0.01,,---,0.01,VWS V14.00,2013-02-03 18:34:00,
2013-02-03 13:38:00,33.2,26.1,29.84,SSE,157,0.0,0.0,75,0.00,,---,0.01,VWS V14.00,2013-02-03 18:38:00,
2013-02-03 13:39:00,33.2,26.1,29.83,SSE,157,0.0,0.0,75,0.00,,---,0.01,VWS V14.00,2013-02-03 18:39:00,
2013-02-03 13:40:00,33.2,26.1,29.83,SSE,157,0.0,0.0,75,0.00,,---,0.01,VWS V14.00,2013-02-03 18:40:00,
2013-02-03 13:43:00,33.2,26.5,29.83,SSE,157,0.0,1.0,76,0.00,,---,0.01,VWS V14.00,2013-02-03 18:43:00,
2013-02-03 13:45:00,33.2,26.8,29.83,SSE,157,0.0,1.0,77,0.00,,---,0.01,VWS V14.00,2013-02-03 18:45:00,
2013-02-03 13:48:00,33.3,26.6,29.83,WSW,243,0.0,2.0,76,0.00,,---,0.01,VWS V14.00,2013-02-03 18:48:00,
2013-02-03 13:50:00,33.3,26.6,29.83,WSW,243,0.0,2.0,76,0.00,,---,0.01,VWS V14.00,2013-02-03 18:50:00,
2013-02-03 13:53:00,33.4,27.0,29.83,WSW,243,0.0,2.0,77,0.00,,---,0.01,VWS V14.00,2013-02-03 18:53:00,
2013-02-03 13:55:00,33.4,27.3,29.83,WSW,243,0.0,2.0,78,0.00,,---,0.01,VWS V14.00,2013-02-03 18:55:00,
2013-02-03 13:58:00,33.6,27.2,29.83,WSW,243,0.0,2.0,77,0.00,,---,0.01,VWS V14.00,2013-02-03 18:58:00,
2013-02-03 14:00:00,33.6,27.2,29.83,WSW,243,0.0,2.0,77,0.00,,---,0.01,VWS V14.00,2013-02-03 19:00:00,
2013-02-03 14:01:00,33.7,27.0,29.83,WSW,242,0.0,2.0,76,0.00,,---,0.01,VWS V14.00,2013-02-03 19:01:00,
2013-02-03 14:03:00,33.8,27.0,29.83,WSW,243,0.0,2.0,76,0.00,,---,0.01,VWS V14.00,2013-02-03 19:03:00,
2013-02-03 14:05:00,33.9,26.8,29.83,WSW,242,0.0,2.0,75,0.00,,---,0.01,VWS V14.00,2013-02-03 19:05:00,
2013-02-03 14:06:00,33.9,26.8,29.83,WSW,242,0.0,0.0,75,0.00,,---,0.01,VWS V14.00,2013-02-03 19:06:00,
2013-02-03 14:09:00,34.0,26.9,29.82,WSW,245,0.0,1.0,75,0.00,,---,0.01,VWS V14.00,2013-02-03 19:09:00,
2013-02-03 14:10:00,34.0,26.9,29.82,WSW,245,0.0,1.0,75,0.00,,---,0.01,VWS V14.00,2013-02-03 19:10:00,
2013-02-03 14:11:00,34.0,26.6,29.82,WSW,245,0.0,1.0,74,0.00,,---,0.01,VWS V14.00,2013-02-03 19:11:00,
2013-02-03 14:15:00,34.1,27.3,29.82,WSW,245,0.0,1.0,76,0.00,,---,0.01,VWS V14.00,2013-02-03 19:15:00,
2013-02-03 14:17:00,34.2,27.1,29.82,WSW,245,0.0,1.0,75,0.00,,---,0.01,VWS V14.00,2013-02-03 19:17:00,
2013-02-03 14:20:00,34.3,26.9,29.82,WNW,286,0.0,2.0,74,0.01,,---,0.02,VWS V14.00,2013-02-03 19:20:00,
2013-02-03 14:21:00,34.3,27.2,29.82,WNW,286,0.0,2.0,75,0.01,,---,0.02,VWS V14.00,2013-02-03 19:21:00,
2013-02-03 14:22:00,34.3,26.9,29.82,WNW,286,0.0,2.0,74,0.01,,---,0.02,VWS V14.00,2013-02-03 19:22:00,
2013-02-03 14:25:00,34.4,26.7,29.82,WNW,286,0.0,2.0,73,0.01,,---,0.02,VWS V14.00,2013-02-03 19:25:00,
2013-02-03 14:26:00,34.4,26.7,29.82,WNW,286,0.0,2.0,73,0.01,,---,0.02,VWS V14.00,2013-02-03 19:26:00,
2013-02-03 14:27:00,34.4,27.0,29.82,WNW,286,0.0,2.0,74,0.01,,---,0.02,VWS V14.00,2013-02-03 19:27:00,
2013-02-03 14:30:00,34.4,26.7,29.82,NW,311,0.0,2.0,73,0.01,,---,0.02,VWS V14.00,2013-02-03 19:30:00,
2013-02-03 14:31:00,34.4,26.7,29.82,NW,310,0.0,2.0,73,0.01,,---,0.02,VWS V14.00,2013-02-03 19:31:00,
2013-02-03 14:32:00,34.4,26.7,29.82,NW,311,0.0,2.0,73,0.01,,---,0.02,VWS V14.00,2013-02-03 19:32:00,
2013-02-03 14:35:00,34.3,26.9,29.82,NW,311,0.0,2.0,74,0.01,,---,0.02,VWS V14.00,2013-02-03 19:35:00,
2013-02-03 14:36:00,34.3,26.9,29.82,NW,311,0.0,0.0,74,0.01,,---,0.02,VWS V14.00,2013-02-03 19:36:00,
2013-02-03 14:37:00,34.3,26.9,29.82,NW,311,0.0,0.0,74,0.01,,---,0.02,VWS V14.00,2013-02-03 19:37:00,
2013-02-03 14:41:00,34.3,26.9,29.82,NW,311,0.0,0.0,74,0.01,,---,0.02,VWS V14.00,2013-02-03 19:41:00,
2013-02-03 14:42:00,34.3,26.9,29.82,NW,310,0.0,0.0,74,0.01,,---,0.02,VWS V14.00,2013-02-03 19:42:00,
2013-02-03 14:46:00,34.2,26.8,29.82,NW,311,0.0,2.0,74,0.01,,---,0.02,VWS V14.00,2013-02-03 19:46:00,
2013-02-03 14:48:00,34.2,26.8,29.82,NW,310,0.0,2.0,74,0.01,,---,0.02,VWS V14.00,2013-02-03 19:48:00,
2013-02-03 14:51:00,34.2,26.8,29.82,NW,310,0.0,2.0,74,0.01,,---,0.02,VWS V14.00,2013-02-03 19:51:00,
2013-02-03 14:53:00,34.2,26.8,29.82,NW,311,1.0,2.0,74,0.01,,---,0.02,VWS V14.00,2013-02-03 19:53:00,
2013-02-03 14:56:00,34.2,27.4,29.82,NW,310,0.0,2.0,76,0.01,,---,0.02,VWS V14.00,2013-02-03 19:56:00,
2013-02-03 14:57:00,34.3,27.5,29.82,NW,310,0.0,2.0,76,0.01,,---,0.02,VWS V14.00,2013-02-03 19:57:00,
2013-02-03 14:59:00,34.3,27.2,29.82,NW,310,0.0,2.0,75,0.01,,---,0.02,VWS V14.00,2013-02-03 19:59:00,
2013-02-03 15:02:00,34.2,27.1,29.82,NW,310,0.0,2.0,75,0.01,,---,0.02,VWS V14.00,2013-02-03 20:02:00,
2013-02-03 15:04:00,34.2,27.4,29.82,NW,310,0.0,2.0,76,0.01,,---,0.02,VWS V14.00,2013-02-03 20:04:00,
2013-02-03 15:07:00,34.1,27.7,29.82,NW,310,0.0,0.0,77,0.01,,---,0.02,VWS V14.00,2013-02-03 20:07:00,
2013-02-03 15:09:00,34.1,27.7,29.82,NW,310,0.0,1.0,77,0.01,,---,0.02,VWS V14.00,2013-02-03 20:09:00,
2013-02-03 15:12:00,34.1,27.7,29.83,NW,311,0.0,2.0,77,0.01,,---,0.02,VWS V14.00,2013-02-03 20:12:00,
2013-02-03 15:13:00,34.1,27.7,29.83,NW,310,0.0,2.0,77,0.01,,---,0.02,VWS V14.00,2013-02-03 20:13:00,
2013-02-03 15:14:00,34.0,27.6,29.82,NW,310,0.0,2.0,77,0.01,,---,0.02,VWS V14.00,2013-02-03 20:14:00,
2013-02-03 15:17:00,33.9,27.8,29.82,NW,311,0.0,2.0,78,0.01,,---,0.02,VWS V14.00,2013-02-03 20:17:00,
2013-02-03 15:18:00,33.9,27.8,29.82,NW,310,0.0,2.0,78,0.01,,---,0.02,VWS V14.00,2013-02-03 20:18:00,
2013-02-03 15:19:00,33.9,27.8,29.82,NW,311,0.0,2.0,78,0.01,,---,0.02,VWS V14.00,2013-02-03 20:19:00,
2013-02-03 15:22:00,33.9,28.1,29.82,NW,310,0.0,2.0,79,0.01,,---,0.02,VWS V14.00,2013-02-03 20:22:00,
2013-02-03 15:23:00,33.9,28.1,29.82,NW,310,0.0,2.0,79,0.01,,---,0.02,VWS V14.00,2013-02-03 20:23:00,
2013-02-03 15:25:00,34.0,28.5,29.82,NW,310,0.0,2.0,80,0.01,,---,0.02,VWS V14.00,2013-02-03 20:25:00,
2013-02-03 15:28:00,34.1,28.9,29.82,NW,311,0.0,2.0,81,0.01,,---,0.02,VWS V14.00,2013-02-03 20:28:00,
2013-02-03 15:30:00,34.1,28.9,29.82,NW,310,0.0,2.0,81,0.01,,---,0.02,VWS V14.00,2013-02-03 20:30:00,
2013-02-03 15:33:00,34.0,28.8,29.83,West,271,0.0,3.0,81,0.01,,---,0.02,VWS V14.00,2013-02-03 20:33:00,
2013-02-03 15:34:00,34.0,28.8,29.83,West,271,1.0,3.0,81,0.01,,---,0.02,VWS V14.00,2013-02-03 20:34:00,
2013-02-03 15:35:00,33.9,28.7,29.83,West,271,0.0,3.0,81,0.01,,---,0.02,VWS V14.00,2013-02-03 20:35:00,
2013-02-03 15:38:00,33.7,28.8,29.83,West,271,0.0,0.0,82,0.00,,---,0.02,VWS V14.00,2013-02-03 20:38:00,
2013-02-03 15:39:00,33.7,28.8,29.83,West,271,0.0,0.0,82,0.00,,---,0.02,VWS V14.00,2013-02-03 20:39:00,
2013-02-03 15:40:00,33.6,28.7,29.83,West,271,0.0,0.0,82,0.00,,---,0.02,VWS V14.00,2013-02-03 20:40:00,
2013-02-03 15:43:00,33.6,28.7,29.83,West,271,0.0,1.0,82,0.00,,---,0.02,VWS V14.00,2013-02-03 20:43:00,
2013-02-03 15:44:00,33.5,28.6,29.83,West,271,0.0,1.0,82,0.00,,---,0.02,VWS V14.00,2013-02-03 20:44:00,
2013-02-03 15:45:00,33.5,28.6,29.83,West,271,0.0,1.0,82,0.00,,---,0.02,VWS V14.00,2013-02-03 20:45:00,
2013-02-03 15:49:00,33.4,28.5,29.83,West,271,0.0,1.0,82,0.00,,---,0.02,VWS V14.00,2013-02-03 20:49:00,
2013-02-03 15:51:00,33.3,28.4,29.83,West,271,0.0,1.0,82,0.00,,---,0.02,VWS V14.00,2013-02-03 20:51:00,
2013-02-03 15:54:00,33.3,28.4,29.83,West,271,0.0,1.0,82,0.00,,---,0.02,VWS V14.00,2013-02-03 20:54:00,
2013-02-03 15:56:00,33.2,28.6,29.83,SE,146,0.0,3.0,83,0.00,,---,0.02,VWS V14.00,2013-02-03 20:56:00,
2013-02-03 15:59:00,33.2,28.3,29.83,SE,146,0.0,3.0,82,0.00,,---,0.02,VWS V14.00,2013-02-03 20:59:00,
2013-02-03 16:00:00,33.2,28.6,29.83,SE,146,0.0,3.0,83,0.00,,---,0.02,VWS V14.00,2013-02-03 21:00:00,
2013-02-03 16:01:00,33.1,28.5,29.83,SE,146,0.0,3.0,83,0.00,,---,0.02,VWS V14.00,2013-02-03 21:01:00,
2013-02-03 16:04:00,33.1,28.5,29.83,SE,146,0.0,3.0,83,0.00,,---,0.02,VWS V14.00,2013-02-03 21:04:00,
2013-02-03 16:05:00,33.0,28.4,29.83,SE,146,0.0,3.0,83,0.00,,---,0.02,VWS V14.00,2013-02-03 21:05:00,
2013-02-03 16:07:00,33.0,28.7,29.83,SE,146,0.0,0.0,84,0.00,,---,0.02,VWS V14.00,2013-02-03 21:07:00,
2013-02-03 16:09:00,33.0,28.7,29.82,SE,146,0.0,0.0,84,0.00,,---,0.02,VWS V14.00,2013-02-03 21:09:00,
2013-02-03 16:10:00,33.0,28.7,29.82,SE,146,0.0,0.0,84,0.00,,---,0.02,VWS V14.00,2013-02-03 21:10:00,
2013-02-03 16:12:00,33.0,28.7,29.83,SE,146,0.0,0.0,84,0.00,,---,0.02,VWS V14.00,2013-02-03 21:12:00,
2013-02-03 16:14:00,33.0,29.0,29.83,SE,146,0.0,0.0,85,0.00,,---,0.02,VWS V14.00,2013-02-03 21:14:00,
2013-02-03 16:15:00,33.0,29.0,29.83,SE,146,0.0,0.0,85,0.00,,---,0.02,VWS V14.00,2013-02-03 21:15:00,
2013-02-03 16:16:00,33.0,29.0,29.83,SE,145,0.0,0.0,85,0.00,,---,0.02,VWS V14.00,2013-02-03 21:16:00,
2013-02-03 16:17:00,33.1,29.1,29.83,SE,146,0.0,0.0,85,0.00,,---,0.02,VWS V14.00,2013-02-03 21:17:00,
2013-02-03 16:20:00,33.0,29.0,29.83,SE,146,0.0,0.0,85,0.00,,---,0.02,VWS V14.00,2013-02-03 21:20:00,
2013-02-03 16:21:00,33.0,29.0,29.83,SE,145,0.0,0.0,85,0.00,,---,0.02,VWS V14.00,2013-02-03 21:21:00,
2013-02-03 16:22:00,33.0,29.0,29.83,SE,146,0.0,0.0,85,0.00,,---,0.02,VWS V14.00,2013-02-03 21:22:00,
2013-02-03 16:25:00,33.0,29.0,29.83,SE,146,0.0,0.0,85,0.00,,---,0.02,VWS V14.00,2013-02-03 21:25:00,
2013-02-03 16:26:00,33.0,29.3,29.83,SE,146,0.0,0.0,86,0.00,,---,0.02,VWS V14.00,2013-02-03 21:26:00,
2013-02-03 16:27:00,33.0,29.3,29.83,SE,145,0.0,0.0,86,0.00,,---,0.02,VWS V14.00,2013-02-03 21:27:00,
2013-02-03 16:30:00,32.9,29.2,29.83,SE,146,0.0,0.0,86,0.00,,---,0.02,VWS V14.00,2013-02-03 21:30:00,
2013-02-03 16:31:00,32.9,29.2,29.83,SE,146,0.0,0.0,86,0.00,,---,0.02,VWS V14.00,2013-02-03 21:31:00,
2013-02-03 16:32:00,32.9,29.2,29.83,SE,146,0.0,0.0,86,0.00,,---,0.02,VWS V14.00,2013-02-03 21:32:00,
2013-02-03 16:35:00,32.8,29.1,29.83,SE,146,0.0,0.0,86,0.00,,---,0.02,VWS V14.00,2013-02-03 21:35:00,
2013-02-03 16:36:00,32.8,29.1,29.83,SE,145,0.0,0.0,86,0.00,,---,0.02,VWS V14.00,2013-02-03 21:36:00,
2013-02-03 16:37:00,32.8,29.1,29.83,SSE,150,0.0,0.0,86,0.00,,---,0.02,VWS V14.00,2013-02-03 21:37:00,
2013-02-03 16:40:00,32.7,29.0,29.82,SSE,150,0.0,0.0,86,0.00,,---,0.02,VWS V14.00,2013-02-03 21:40:00,
2013-02-03 16:41:00,32.7,29.0,29.82,SSE,150,0.0,0.0,86,0.00,,---,0.02,VWS V14.00,2013-02-03 21:41:00,
2013-02-03 16:43:00,32.7,29.0,29.82,SSE,150,0.0,0.0,86,0.00,,---,0.02,VWS V14.00,2013-02-03 21:43:00,
2013-02-03 16:45:00,32.6,29.2,29.82,SSE,150,0.0,0.0,87,0.00,,---,0.02,VWS V14.00,2013-02-03 21:45:00,
2013-02-03 16:46:00,32.6,29.2,29.82,SSE,150,0.0,0.0,87,0.00,,---,0.02,VWS V14.00,2013-02-03 21:46:00,
2013-02-03 16:48:00,32.6,29.2,29.82,SSE,150,0.0,0.0,87,0.00,,---,0.02,VWS V14.00,2013-02-03 21:48:00,
2013-02-03 16:50:00,32.6,29.2,29.82,SSE,150,0.0,0.0,87,0.00,,---,0.02,VWS V14.00,2013-02-03 21:50:00,
2013-02-03 16:52:00,32.5,29.1,29.82,SSE,150,0.0,0.0,87,0.00,,---,0.02,VWS V14.00,2013-02-03 21:52:00,
2013-02-03 16:53:00,32.5,29.1,29.82,SSE,150,0.0,0.0,87,0.00,,---,0.02,VWS V14.00,2013-02-03 21:53:00,
2013-02-03 16:55:00,32.5,29.1,29.82,SSE,150,0.0,0.0,87,0.00,,---,0.02,VWS V14.00,2013-02-03 21:55:00,
2013-02-03 16:57:00,32.5,29.1,29.82,SSE,150,0.0,0.0,87,0.00,,---,0.02,VWS V14.00,2013-02-03 21:57:00,
2013-02-03 16:59:00,32.4,29.0,29.82,SSE,150,0.0,0.0,87,0.00,,---,0.02,VWS V14.00,2013-02-03 21:59:00,
2013-02-03 17:00:00,32.4,29.0,29.82,SSE,150,0.0,0.0,87,0.00,,---,0.02,VWS V14.00,2013-02-03 22:00:00,
2013-02-03 17:02:00,32.4,29.0,29.82,SSE,150,0.0,0.0,87,0.00,,---,0.02,VWS V14.00,2013-02-03 22:02:00,
2013-02-03 17:04:00,32.3,29.1,29.82,SSE,150,0.0,0.0,88,0.00,,---,0.02,VWS V14.00,2013-02-03 22:04:00,
2013-02-03 17:05:00,32.3,29.1,29.82,SSE,150,0.0,0.0,88,0.00,,---,0.02,VWS V14.00,2013-02-03 22:05:00,
2013-02-03 17:07:00,32.3,29.1,29.82,SSE,150,0.0,0.0,88,0.00,,---,0.02,VWS V14.00,2013-02-03 22:07:00,
2013-02-03 17:09:00,32.3,29.1,29.82,SSE,150,0.0,0.0,88,0.00,,---,0.02,VWS V14.00,2013-02-03 22:09:00,
2013-02-03 17:11:00,32.2,29.0,29.82,SSE,150,0.0,0.0,88,0.00,,---,0.02,VWS V14.00,2013-02-03 22:11:00,
2013-02-03 17:12:00,32.3,29.1,29.82,SSE,150,0.0,0.0,88,0.00,,---,0.02,VWS V14.00,2013-02-03 22:12:00,
2013-02-03 17:15:00,32.2,29.0,29.82,SSE,150,0.0,0.0,88,0.00,,---,0.02,VWS V14.00,2013-02-03 22:15:00,
2013-02-03 17:16:00,32.2,29.0,29.82,SSE,150,0.0,0.0,88,0.00,,---,0.02,VWS V14.00,2013-02-03 22:16:00,
2013-02-03 17:17:00,32.2,29.0,29.82,SSE,150,0.0,0.0,88,0.00,,---,0.02,VWS V14.00,2013-02-03 22:17:00,
2013-02-03 17:18:00,32.2,29.0,29.82,SSE,150,0.0,0.0,88,0.00,,---,0.02,VWS V14.00,2013-02-03 22:18:00,
2013-02-03 17:20:00,32.1,29.0,29.82,SSE,150,0.0,0.0,88,0.00,,---,0.02,VWS V14.00,2013-02-03 22:20:00,
2013-02-03 17:22:00,32.1,29.0,29.82,SSE,150,0.0,0.0,88,0.00,,---,0.02,VWS V14.00,2013-02-03 22:22:00,
2013-02-03 17:23:00,32.1,29.0,29.82,SSE,150,0.0,0.0,88,0.00,,---,0.02,VWS V14.00,2013-02-03 22:23:00,
2013-02-03 17:26:00,32.0,29.1,29.82,SSE,150,0.0,0.0,89,0.00,,---,0.02,VWS V14.00,2013-02-03 22:26:00,
2013-02-03 17:27:00,32.0,29.1,29.82,SSE,150,0.0,0.0,89,0.00,,---,0.02,VWS V14.00,2013-02-03 22:27:00,
2013-02-03 17:28:00,32.0,29.1,29.82,SSE,150,0.0,0.0,89,0.00,,---,0.02,VWS V14.00,2013-02-03 22:28:00,
2013-02-03 17:29:00,32.0,29.1,29.82,SSE,150,0.0,0.0,89,0.00,,---,0.02,VWS V14.00,2013-02-03 22:29:00,
2013-02-03 17:31:00,31.9,29.0,29.82,SSE,150,0.0,0.0,89,0.00,,---,0.02,VWS V14.00,2013-02-03 22:31:00,
2013-02-03 17:32:00,31.9,29.0,29.82,SSE,150,0.0,0.0,89,0.00,,---,0.02,VWS V14.00,2013-02-03 22:32:00,
2013-02-03 17:34:00,31.9,29.0,29.82,SSE,150,0.0,0.0,89,0.00,,---,0.02,VWS V14.00,2013-02-03 22:34:00,
2013-02-03 17:36:00,31.8,28.9,29.82,SSE,150,0.0,0.0,89,0.00,,---,0.02,VWS V14.00,2013-02-03 22:36:00,
2013-02-03 17:37:00,31.8,28.9,29.82,SSE,150,0.0,0.0,89,0.00,,---,0.02,VWS V14.00,2013-02-03 22:37:00,
2013-02-03 17:39:00,31.8,28.9,29.82,SSE,150,0.0,0.0,89,0.00,,---,0.02,VWS V14.00,2013-02-03 22:39:00,
2013-02-03 17:41:00,31.8,28.9,29.82,SSE,150,0.0,0.0,89,0.00,,---,0.02,VWS V14.00,2013-02-03 22:41:00,
2013-02-03 17:42:00,31.8,28.9,29.82,SSE,150,0.0,0.0,89,0.00,,---,0.02,VWS V14.00,2013-02-03 22:42:00,
2013-02-03 17:44:00,31.7,28.8,29.82,SSE,150,0.0,0.0,89,0.00,,---,0.02,VWS V14.00,2013-02-03 22:44:00,
2013-02-03 17:45:00,31.7,28.8,29.82,SSE,150,0.0,0.0,89,0.00,,---,0.02,VWS V14.00,2013-02-03 22:45:00,
2013-02-03 17:46:00,31.7,28.8,29.82,SSE,150,0.0,0.0,89,0.00,,---,0.02,VWS V14.00,2013-02-03 22:46:00,
2013-02-03 17:48:00,31.7,28.8,29.82,SSE,150,0.0,0.0,89,0.00,,---,0.02,VWS V14.00,2013-02-03 22:48:00,
2013-02-03 17:50:00,31.7,28.8,29.82,SSE,150,0.0,0.0,89,0.00,,---,0.02,VWS V14.00,2013-02-03 22:50:00,
2013-02-03 17:51:00,31.6,28.7,29.82,SSE,150,0.0,0.0,89,0.00,,---,0.02,VWS V14.00,2013-02-03 22:51:00,
2013-02-03 17:53:00,31.6,28.7,29.82,SSE,150,0.0,0.0,89,0.00,,---,0.02,VWS V14.00,2013-02-03 22:53:00,
2013-02-03 17:55:00,31.6,28.7,29.82,SSE,150,0.0,0.0,89,0.00,,---,0.02,VWS V14.00,2013-02-03 22:55:00,
2013-02-03 17:57:00,31.6,28.7,29.83,SSE,150,0.0,0.0,89,0.00,,---,0.02,VWS V14.00,2013-02-03 22:57:00,
2013-02-03 17:58:00,31.6,28.7,29.83,SSE,150,0.0,0.0,89,0.00,,---,0.02,VWS V14.00,2013-02-03 22:58:00,
2013-02-03 18:00:00,31.6,28.7,29.82,SSE,150,0.0,0.0,89,0.00,,---,0.02,VWS V14.00,2013-02-03 23:00:00,
2013-02-03 18:02:00,31.6,28.7,29.82,SSE,150,0.0,0.0,89,0.00,,---,0.02,VWS V14.00,2013-02-03 23:02:00,
2013-02-03 18:04:00,31.5,28.6,29.82,SSE,150,0.0,0.0,89,0.00,,---,0.02,VWS V14.00,2013-02-03 23:04:00,
2013-02-03 18:05:00,31.5,28.6,29.82,SSE,150,0.0,0.0,89,0.00,,---,0.02,VWS V14.00,2013-02-03 23:05:00,
2013-02-03 18:07:00,31.5,28.6,29.82,SSE,150,0.0,0.0,89,0.00,,---,0.02,VWS V14.00,2013-02-03 23:07:00,
2013-02-03 18:09:00,31.4,28.5,29.82,SSE,150,0.0,0.0,89,0.00,,---,0.02,VWS V14.00,2013-02-03 23:09:00,
2013-02-03 18:10:00,31.4,28.5,29.82,SSE,150,0.0,0.0,89,0.00,,---,0.02,VWS V14.00,2013-02-03 23:10:00,
2013-02-03 18:12:00,31.4,28.5,29.82,SSE,150,0.0,0.0,89,0.00,,---,0.02,VWS V14.00,2013-02-03 23:12:00,
2013-02-03 18:14:00,31.4,28.5,29.82,SSE,150,0.0,0.0,89,0.00,,---,0.02,VWS V14.00,2013-02-03 23:14:00,
2013-02-03 18:15:00,31.4,28.5,29.82,SSE,150,0.0,0.0,89,0.00,,---,0.02,VWS V14.00,2013-02-03 23:15:00,
2013-02-03 18:17:00,31.3,28.4,29.82,SSE,150,0.0,0.0,89,0.00,,---,0.02,VWS V14.00,2013-02-03 23:17:00,
2013-02-03 18:19:00,31.3,28.4,29.82,SSE,150,0.0,0.0,89,0.00,,---,0.02,VWS V14.00,2013-02-03 23:19:00,
2013-02-03 18:21:00,31.3,28.2,29.82,SSE,150,0.0,0.0,88,0.00,,---,0.02,VWS V14.00,2013-02-03 23:21:00,
2013-02-03 18:22:00,31.3,28.2,29.82,SSE,150,0.0,0.0,88,0.00,,---,0.02,VWS V14.00,2013-02-03 23:22:00,
2013-02-03 18:24:00,31.2,28.1,29.82,SSE,150,0.0,0.0,88,0.00,,---,0.02,VWS V14.00,2013-02-03 23:24:00,
2013-02-03 18:26:00,31.2,28.1,29.82,SSE,150,0.0,0.0,88,0.00,,---,0.02,VWS V14.00,2013-02-03 23:26:00,
2013-02-03 18:27:00,31.2,28.1,29.82,SSE,150,0.0,0.0,88,0.00,,---,0.02,VWS V14.00,2013-02-03 23:27:00,
2013-02-03 18:28:00,31.2,28.1,29.82,SSE,150,0.0,0.0,88,0.00,,---,0.02,VWS V14.00,2013-02-03 23:28:00,
2013-02-03 18:29:00,31.2,28.1,29.82,SSE,150,0.0,0.0,88,0.00,,---,0.02,VWS V14.00,2013-02-03 23:29:00,
2013-02-03 18:31:00,31.1,27.7,29.82,SSE,150,0.0,0.0,87,0.00,,---,0.02,VWS V14.00,2013-02-03 23:31:00,
2013-02-03 18:32:00,31.1,27.7,29.82,SSE,150,0.0,0.0,87,0.00,,---,0.02,VWS V14.00,2013-02-03 23:32:00,
2013-02-03 18:33:00,31.1,27.7,29.82,SSE,150,0.0,0.0,87,0.00,,---,0.02,VWS V14.00,2013-02-03 23:33:00,
2013-02-03 18:34:00,31.1,27.7,29.82,SSE,150,0.0,0.0,87,0.00,,---,0.02,VWS V14.00,2013-02-03 23:34:00,
2013-02-03 18:36:00,31.1,27.7,29.82,SSE,150,0.0,0.0,87,0.00,,---,0.02,VWS V14.00,2013-02-03 23:36:00,
2013-02-03 18:37:00,31.0,27.6,29.82,SSE,150,0.0,0.0,87,0.00,,---,0.02,VWS V14.00,2013-02-03 23:37:00,
2013-02-03 18:38:00,31.0,27.6,29.82,SSE,150,0.0,0.0,87,0.00,,---,0.02,VWS V14.00,2013-02-03 23:38:00,
2013-02-03 18:39:00,31.0,27.6,29.82,SSE,150,0.0,0.0,87,0.00,,---,0.02,VWS V14.00,2013-02-03 23:39:00,
2013-02-03 18:41:00,30.9,27.5,29.83,SSE,150,0.0,0.0,87,0.00,,---,0.02,VWS V14.00,2013-02-03 23:41:00,
2013-02-03 18:42:00,30.9,27.5,29.83,SSE,150,0.0,0.0,87,0.00,,---,0.02,VWS V14.00,2013-02-03 23:42:00,
2013-02-03 18:43:00,30.9,27.5,29.83,SSE,150,0.0,0.0,87,0.00,,---,0.02,VWS V14.00,2013-02-03 23:43:00,
2013-02-03 18:45:00,30.9,27.5,29.83,SSE,150,0.0,0.0,87,0.00,,---,0.02,VWS V14.00,2013-02-03 23:45:00,
2013-02-03 18:46:00,30.8,27.4,29.83,SSE,150,0.0,0.0,87,0.00,,---,0.02,VWS V14.00,2013-02-03 23:46:00,
2013-02-03 18:48:00,30.8,27.4,29.83,SSE,150,0.0,0.0,87,0.00,,---,0.02,VWS V14.00,2013-02-03 23:48:00,
2013-02-03 18:49:00,30.8,27.4,29.83,SSE,150,0.0,0.0,87,0.00,,---,0.02,VWS V14.00,2013-02-03 23:49:00,
2013-02-03 18:50:00,30.8,27.4,29.83,SSE,150,0.0,0.0,87,0.00,,---,0.02,VWS V14.00,2013-02-03 23:50:00,
2013-02-03 18:51:00,30.8,27.4,29.83,SSE,150,0.0,0.0,87,0.00,,---,0.02,VWS V14.00,2013-02-03 23:51:00,
2013-02-03 18:53:00,30.8,27.7,29.83,SSE,150,0.0,0.0,88,0.00,,---,0.02,VWS V14.00,2013-02-03 23:53:00,
2013-02-03 18:54:00,30.8,27.7,29.83,SSE,150,0.0,0.0,88,0.00,,---,0.02,VWS V14.00,2013-02-03 23:54:00,
2013-02-03 18:55:00,30.8,27.7,29.83,SSE,150,0.0,0.0,88,0.00,,---,0.02,VWS V14.00,2013-02-03 23:55:00,
2013-02-03 18:56:00,30.8,27.7,29.83,SSE,150,0.0,0.0,88,0.00,,---,0.02,VWS V14.00,2013-02-03 23:56:00,
2013-02-03 18:59:00,30.8,27.7,29.83,SSE,150,0.0,0.0,88,0.00,,---,0.02,VWS V14.00,2013-02-03 23:59:00,
2013-02-03 19:01:00,30.8,27.7,29.83,SSE,150,0.0,0.0,88,0.00,,---,0.02,VWS V14.00,2013-02-04 00:01:00,
2013-02-03 19:02:00,30.8,27.7,29.83,SSE,150,0.0,0.0,88,0.00,,---,0.02,VWS V14.00,2013-02-04 00:02:00,
2013-02-03 19:04:00,30.8,27.7,29.83,SSE,150,0.0,0.0,88,0.00,,---,0.02,VWS V14.00,2013-02-04 00:04:00,
2013-02-03 19:06:00,30.8,27.7,29.83,SSE,150,0.0,0.0,88,0.00,,---,0.02,VWS V14.00,2013-02-04 00:06:00,
2013-02-03 19:08:00,30.8,27.7,29.83,SSE,150,0.0,0.0,88,0.00,,---,0.02,VWS V14.00,2013-02-04 00:08:00,
2013-02-03 19:09:00,30.8,27.7,29.83,SSE,150,0.0,0.0,88,0.00,,---,0.02,VWS V14.00,2013-02-04 00:09:00,
2013-02-03 19:11:00,30.8,27.7,29.83,SSE,150,0.0,0.0,88,0.00,,---,0.02,VWS V14.00,2013-02-04 00:11:00,
2013-02-03 19:13:00,30.8,27.7,29.83,SSE,150,0.0,0.0,88,0.00,,---,0.02,VWS V14.00,2013-02-04 00:13:00,
2013-02-03 19:14:00,30.8,27.7,29.83,SSE,150,0.0,0.0,88,0.00,,---,0.02,VWS V14.00,2013-02-04 00:14:00,
2013-02-03 19:17:00,30.8,27.7,29.83,SSE,150,0.0,0.0,88,0.00,,---,0.02,VWS V14.00,2013-02-04 00:17:00,
2013-02-03 19:19:00,30.7,27.3,29.83,SSE,150,0.0,0.0,87,0.00,,---,0.02,VWS V14.00,2013-02-04 00:19:00,
2013-02-03 19:20:00,30.7,27.3,29.83,SSE,150,0.0,0.0,87,0.00,,---,0.02,VWS V14.00,2013-02-04 00:20:00,
2013-02-03 19:22:00,30.7,27.3,29.83,SSE,150,0.0,0.0,87,0.00,,---,0.02,VWS V14.00,2013-02-04 00:22:00,
2013-02-03 19:24:00,30.7,27.3,29.83,SSE,150,0.0,0.0,87,0.00,,---,0.02,VWS V14.00,2013-02-04 00:24:00,
2013-02-03 19:25:00,30.7,27.3,29.83,SSE,150,0.0,0.0,87,0.00,,---,0.02,VWS V14.00,2013-02-04 00:25:00,
2013-02-03 19:27:00,30.7,27.3,29.84,SSE,150,0.0,0.0,87,0.00,,---,0.02,VWS V14.00,2013-02-04 00:27:00,
2013-02-03 19:30:00,30.6,27.2,29.84,SSE,150,0.0,0.0,87,0.00,,---,0.02,VWS V14.00,2013-02-04 00:30:00,
2013-02-03 19:33:00,30.5,27.1,29.84,SSE,150,0.0,0.0,87,0.00,,---,0.02,VWS V14.00,2013-02-04 00:33:00,
2013-02-03 19:35:00,30.5,27.1,29.84,SSE,150,0.0,0.0,87,0.00,,---,0.02,VWS V14.00,2013-02-04 00:35:00,
2013-02-03 19:38:00,30.4,27.3,29.84,SSE,150,0.0,0.0,88,0.00,,---,0.02,VWS V14.00,2013-02-04 00:38:00,
2013-02-03 19:40:00,30.3,27.2,29.84,SSE,150,0.0,0.0,88,0.00,,---,0.02,VWS V14.00,2013-02-04 00:40:00,
2013-02-03 19:43:00,30.3,27.2,29.84,SSE,150,0.0,0.0,88,0.00,,---,0.02,VWS V14.00,2013-02-04 00:43:00,
2013-02-03 19:45:00,30.2,27.1,29.84,SSE,150,0.0,0.0,88,0.00,,---,0.02,VWS V14.00,2013-02-04 00:45:00,
2013-02-03 19:46:00,30.2,27.1,29.84,SSE,150,0.0,0.0,88,0.00,,---,0.02,VWS V14.00,2013-02-04 00:46:00,
2013-02-03 19:48:00,30.3,27.2,29.85,SSE,150,0.0,0.0,88,0.00,,---,0.02,VWS V14.00,2013-02-04 00:48:00,
2013-02-03 19:51:00,30.2,27.1,29.85,SSE,150,0.0,0.0,88,0.00,,---,0.02,VWS V14.00,2013-02-04 00:51:00,
2013-02-03 19:53:00,30.2,27.1,29.84,SSE,150,0.0,0.0,88,0.00,,---,0.02,VWS V14.00,2013-02-04 00:53:00,
2013-02-03 19:56:00,30.2,27.1,29.84,SSE,150,0.0,0.0,88,0.00,,---,0.02,VWS V14.00,2013-02-04 00:56:00,
2013-02-03 19:59:00,30.2,27.1,29.84,SSE,150,0.0,0.0,88,0.00,,---,0.02,VWS V14.00,2013-02-04 00:59:00,
2013-02-03 20:01:00,30.2,27.1,29.84,SSE,150,0.0,0.0,88,0.00,,---,0.02,VWS V14.00,2013-02-04 01:01:00,
2013-02-03 20:04:00,30.2,27.1,29.85,SSE,150,0.0,0.0,88,0.00,,---,0.02,VWS V14.00,2013-02-04 01:04:00,
2013-02-03 20:06:00,30.2,27.1,29.85,SSE,150,0.0,0.0,88,0.00,,---,0.02,VWS V14.00,2013-02-04 01:06:00,
2013-02-03 20:09:00,30.3,27.2,29.85,SSE,150,0.0,0.0,88,0.00,,---,0.02,VWS V14.00,2013-02-04 01:09:00,
2013-02-03 20:11:00,30.3,27.5,29.85,SSE,150,0.0,0.0,89,0.00,,---,0.02,VWS V14.00,2013-02-04 01:11:00,
2013-02-03 20:12:00,30.3,27.5,29.85,SSE,150,0.0,0.0,89,0.00,,---,0.02,VWS V14.00,2013-02-04 01:12:00,
2013-02-03 20:15:00,30.3,27.5,29.85,SSE,150,0.0,0.0,89,0.00,,---,0.02,VWS V14.00,2013-02-04 01:15:00,
2013-02-03 20:16:00,30.2,27.4,29.85,SSE,150,0.0,0.0,89,0.00,,---,0.02,VWS V14.00,2013-02-04 01:16:00,
2013-02-03 20:17:00,30.2,27.4,29.85,SSE,150,0.0,0.0,89,0.00,,---,0.02,VWS V14.00,2013-02-04 01:17:00,
2013-02-03 20:20:00,30.2,27.4,29.85,SSE,150,0.0,0.0,89,0.00,,---,0.02,VWS V14.00,2013-02-04 01:20:00,
2013-02-03 20:22:00,30.2,27.4,29.85,SSE,150,0.0,0.0,89,0.00,,---,0.02,VWS V14.00,2013-02-04 01:22:00,
2013-02-03 20:23:00,30.2,27.4,29.85,SSE,150,0.0,0.0,89,0.00,,---,0.02,VWS V14.00,2013-02-04 01:23:00,
2013-02-03 20:25:00,30.3,27.5,29.85,SSE,150,0.0,0.0,89,0.00,,---,0.02,VWS V14.00,2013-02-04 01:25:00,
2013-02-03 20:27:00,30.3,27.5,29.85,SSE,150,0.0,0.0,89,0.00,,---,0.02,VWS V14.00,2013-02-04 01:27:00,
2013-02-03 20:28:00,30.3,27.5,29.85,SSE,150,0.0,0.0,89,0.00,,---,0.02,VWS V14.00,2013-02-04 01:28:00,
2013-02-03 20:30:00,30.4,27.5,29.85,SSE,150,0.0,0.0,89,0.00,,---,0.02,VWS V14.00,2013-02-04 01:30:00,
2013-02-03 20:32:00,30.4,27.5,29.86,SSE,150,0.0,0.0,89,0.00,,---,0.02,VWS V14.00,2013-02-04 01:32:00,
2013-02-03 20:33:00,30.5,27.6,29.85,SSE,150,0.0,0.0,89,0.00,,---,0.02,VWS V14.00,2013-02-04 01:33:00,
2013-02-03 20:34:00,30.5,27.6,29.85,SSE,150,0.0,0.0,89,0.00,,---,0.02,VWS V14.00,2013-02-04 01:34:00,
2013-02-03 20:36:00,30.5,27.6,29.85,SSE,150,0.0,0.0,89,0.00,,---,0.02,VWS V14.00,2013-02-04 01:36:00,
2013-02-03 20:37:00,30.6,27.8,29.85,SSE,150,0.0,0.0,89,0.00,,---,0.02,VWS V14.00,2013-02-04 01:37:00,
2013-02-03 20:38:00,30.5,27.6,29.85,SSE,150,0.0,0.0,89,0.00,,---,0.02,VWS V14.00,2013-02-04 01:38:00,
2013-02-03 20:39:00,30.6,27.8,29.85,SSE,150,0.0,0.0,89,0.00,,---,0.02,VWS V14.00,2013-02-04 01:39:00,
2013-02-03 20:41:00,30.6,27.8,29.85,SSE,150,0.0,0.0,89,0.00,,---,0.02,VWS V14.00,2013-02-04 01:41:00,
2013-02-03 20:43:00,30.6,27.8,29.86,SSE,150,0.0,0.0,89,0.00,,---,0.02,VWS V14.00,2013-02-04 01:43:00,
2013-02-03 20:44:00,30.6,27.8,29.86,SSE,150,0.0,0.0,89,0.00,,---,0.02,VWS V14.00,2013-02-04 01:44:00,
2013-02-03 20:46:00,30.6,27.8,29.86,SSE,150,0.0,0.0,89,0.00,,---,0.02,VWS V14.00,2013-02-04 01:46:00,
2013-02-03 20:48:00,30.7,27.9,29.86,SSE,150,0.0,0.0,89,0.00,,---,0.02,VWS V14.00,2013-02-04 01:48:00,
2013-02-03 20:49:00,30.7,27.9,29.86,SSE,150,0.0,0.0,89,0.00,,---,0.02,VWS V14.00,2013-02-04 01:49:00,
2013-02-03 20:52:00,30.7,27.9,29.86,SSE,150,0.0,0.0,89,0.00,,---,0.02,VWS V14.00,2013-02-04 01:52:00,
2013-02-03 20:53:00,30.7,27.9,29.86,SSE,150,0.0,0.0,89,0.00,,---,0.02,VWS V14.00,2013-02-04 01:53:00,
2013-02-03 20:54:00,30.7,27.9,29.86,SSE,150,0.0,0.0,89,0.00,,---,0.02,VWS V14.00,2013-02-04 01:54:00,
2013-02-03 20:55:00,30.7,27.9,29.86,SSE,150,0.0,0.0,89,0.00,,---,0.02,VWS V14.00,2013-02-04 01:55:00,
2013-02-03 20:57:00,30.7,27.9,29.86,SSE,150,0.0,0.0,89,0.00,,---,0.02,VWS V14.00,2013-02-04 01:57:00,
2013-02-03 20:58:00,30.7,27.9,29.86,SSE,150,0.0,0.0,89,0.00,,---,0.02,VWS V14.00,2013-02-04 01:58:00,
2013-02-03 20:59:00,30.7,27.9,29.86,SSE,150,0.0,0.0,89,0.00,,---,0.02,VWS V14.00,2013-02-04 01:59:00,
2013-02-03 21:00:00,30.7,27.9,29.86,SSE,150,0.0,0.0,89,0.00,,---,0.02,VWS V14.00,2013-02-04 02:00:00,
2013-02-03 21:02:00,30.8,28.0,29.86,SSE,150,0.0,0.0,89,0.00,,---,0.02,VWS V14.00,2013-02-04 02:02:00,
2013-02-03 21:04:00,30.8,28.0,29.86,SSE,150,0.0,0.0,89,0.00,,---,0.02,VWS V14.00,2013-02-04 02:04:00,
2013-02-03 21:05:00,30.8,28.0,29.87,SSE,150,0.0,0.0,89,0.00,,---,0.02,VWS V14.00,2013-02-04 02:05:00,
2013-02-03 21:07:00,30.8,28.0,29.87,SSE,150,0.0,1.0,89,0.00,,---,0.02,VWS V14.00,2013-02-04 02:07:00,
2013-02-03 21:09:00,30.8,28.0,29.87,SSE,150,0.0,1.0,89,0.00,,---,0.02,VWS V14.00,2013-02-04 02:09:00,
2013-02-03 21:10:00,30.8,28.0,29.87,SSE,150,0.0,1.0,89,0.00,,---,0.02,VWS V14.00,2013-02-04 02:10:00,
2013-02-03 21:12:00,30.8,27.7,29.87,SSE,150,0.0,1.0,88,0.00,,---,0.02,VWS V14.00,2013-02-04 02:12:00,
2013-02-03 21:14:00,30.9,27.8,29.87,SSE,150,0.0,1.0,88,0.00,,---,0.02,VWS V14.00,2013-02-04 02:14:00,
2013-02-03 21:15:00,30.9,27.8,29.87,SSE,150,0.0,1.0,88,0.00,,---,0.02,VWS V14.00,2013-02-04 02:15:00,
2013-02-03 21:17:00,30.9,27.8,29.87,SSW,197,0.0,1.0,88,0.00,,---,0.02,VWS V14.00,2013-02-04 02:17:00,
2013-02-03 21:20:00,30.9,27.8,29.87,SSW,196,0.0,1.0,88,0.00,,---,0.02,VWS V14.00,2013-02-04 02:20:00,
2013-02-03 21:22:00,30.9,27.8,29.87,SSW,197,0.0,1.0,88,0.00,,---,0.02,VWS V14.00,2013-02-04 02:22:00,
2013-02-03 21:25:00,31.1,28.0,29.87,WSW,242,0.0,2.0,88,0.00,,---,0.02,VWS V14.00,2013-02-04 02:25:00,
2013-02-03 21:26:00,31.1,28.0,29.87,WSW,242,0.0,2.0,88,0.00,,---,0.02,VWS V14.00,2013-02-04 02:26:00,
2013-02-03 21:27:00,31.1,28.0,29.87,WSW,242,0.0,2.0,88,0.00,,---,0.02,VWS V14.00,2013-02-04 02:27:00,
2013-02-03 21:31:00,31.1,28.0,29.87,WSW,242,0.0,2.0,88,0.00,,---,0.02,VWS V14.00,2013-02-04 02:31:00,
2013-02-03 21:32:00,31.2,28.1,29.87,WSW,242,0.0,2.0,88,0.00,,---,0.02,VWS V14.00,2013-02-04 02:32:00,
2013-02-03 21:36:00,31.3,28.2,29.87,WSW,244,0.0,2.0,88,0.00,,---,0.02,VWS V14.00,2013-02-04 02:36:00,
2013-02-03 21:38:00,31.3,28.2,29.87,WSW,244,0.0,1.0,88,0.00,,---,0.02,VWS V14.00,2013-02-04 02:38:00,
2013-02-03 21:41:00,31.3,28.2,29.87,WSW,244,0.0,1.0,88,0.00,,---,0.02,VWS V14.00,2013-02-04 02:41:00,
2013-02-03 21:42:00,31.3,28.2,29.87,WSW,244,0.0,1.0,88,0.00,,---,0.02,VWS V14.00,2013-02-04 02:42:00,
2013-02-03 21:43:00,31.3,28.2,29.88,WSW,244,0.0,1.0,88,0.00,,---,0.02,VWS V14.00,2013-02-04 02:43:00,
2013-02-03 21:46:00,31.4,28.3,29.87,WSW,244,0.0,1.0,88,0.00,,---,0.02,VWS V14.00,2013-02-04 02:46:00,
2013-02-03 21:47:00,31.3,28.2,29.87,WSW,244,0.0,1.0,88,0.00,,---,0.02,VWS V14.00,2013-02-04 02:47:00,
2013-02-03 21:48:00,31.4,28.3,29.87,WSW,244,0.0,1.0,88,0.00,,---,0.02,VWS V14.00,2013-02-04 02:48:00,
2013-02-03 21:51:00,31.3,28.2,29.87,WSW,249,0.0,2.0,88,0.00,,---,0.02,VWS V14.00,2013-02-04 02:51:00,
2013-02-03 21:52:00,31.4,28.3,29.87,WSW,250,0.0,2.0,88,0.00,,---,0.02,VWS V14.00,2013-02-04 02:52:00,
2013-02-03 21:54:00,31.4,28.3,29.87,WSW,249,0.0,2.0,88,0.00,,---,0.02,VWS V14.00,2013-02-04 02:54:00,
2013-02-03 21:56:00,31.3,28.4,29.87,SW,220,0.0,2.0,89,0.00,,---,0.02,VWS V14.00,2013-02-04 02:56:00,
2013-02-03 21:57:00,31.4,28.5,29.87,SW,219,0.0,2.0,89,0.00,,---,0.02,VWS V14.00,2013-02-04 02:57:00,
2013-02-03 21:59:00,31.4,28.3,29.88,SW,220,1.0,2.0,88,0.00,,---,0.02,VWS V14.00,2013-02-04 02:59:00,
2013-02-03 22:01:00,31.4,28.3,29.88,SW,236,0.0,2.0,88,0.00,,---,0.02,VWS V14.00,2013-02-04 03:01:00,
2013-02-03 22:02:00,31.4,28.3,29.88,SW,236,0.0,2.0,88,0.00,,---,0.02,VWS V14.00,2013-02-04 03:02:00,
2013-02-03 22:04:00,31.5,28.4,29.88,SW,220,0.0,3.0,88,0.00,,---,0.02,VWS V14.00,2013-02-04 03:04:00,
2013-02-03 22:07:00,31.6,28.5,29.88,SW,221,0.0,1.0,88,0.00,,---,0.02,VWS V14.00,2013-02-04 03:07:00,
2013-02-03 22:09:00,31.6,28.5,29.88,SW,225,0.0,1.0,88,0.00,,---,0.02,VWS V14.00,2013-02-04 03:09:00,
2013-02-03 22:12:00,31.6,28.2,29.88,WSW,244,0.0,3.0,87,0.00,,---,0.02,VWS V14.00,2013-02-04 03:12:00,
2013-02-03 22:15:00,31.8,28.1,29.89,WSW,249,0.0,3.0,86,0.00,,---,0.02,VWS V14.00,2013-02-04 03:15:00,
2013-02-03 22:17:00,31.8,27.8,29.89,WSW,249,0.0,3.0,85,0.00,,---,0.02,VWS V14.00,2013-02-04 03:17:00,
2013-02-03 22:20:00,32.0,28.3,29.89,WSW,249,0.0,3.0,86,0.00,,---,0.02,VWS V14.00,2013-02-04 03:20:00,
2013-02-03 22:22:00,32.0,28.0,29.89,NW,321,0.0,3.0,85,0.00,,---,0.02,VWS V14.00,2013-02-04 03:22:00,
2013-02-03 22:23:00,32.0,28.0,29.89,NW,321,0.0,3.0,85,0.00,,---,0.02,VWS V14.00,2013-02-04 03:23:00,
2013-02-03 22:25:00,32.0,28.0,29.89,North,9,1.0,4.0,85,0.00,,---,0.02,VWS V14.00,2013-02-04 03:25:00,
2013-02-03 22:27:00,32.1,27.8,29.89,WNW,292,0.0,4.0,84,0.00,,---,0.02,VWS V14.00,2013-02-04 03:27:00,
2013-02-03 22:28:00,32.1,27.8,29.89,WNW,284,0.0,4.0,84,0.00,,---,0.02,VWS V14.00,2013-02-04 03:28:00,
2013-02-03 22:30:00,32.2,27.6,29.89,North,360,1.0,5.0,83,0.00,,---,0.02,VWS V14.00,2013-02-04 03:30:00,
2013-02-03 22:33:00,32.2,27.3,29.89,North,360,0.0,5.0,82,0.00,,---,0.02,VWS V14.00,2013-02-04 03:33:00,
2013-02-03 22:34:00,32.2,27.3,29.89,WNW,287,2.0,5.0,82,0.00,,---,0.02,VWS V14.00,2013-02-04 03:34:00,
2013-02-03 22:36:00,32.3,27.4,29.89,NNW,338,2.0,5.0,82,0.00,,---,0.02,VWS V14.00,2013-02-04 03:36:00,
2013-02-03 22:38:00,32.3,27.1,29.89,NW,317,1.0,7.0,81,0.00,,---,0.02,VWS V14.00,2013-02-04 03:38:00,
2013-02-03 22:39:00,32.4,27.2,29.89,NW,307,2.0,7.0,81,0.00,,---,0.02,VWS V14.00,2013-02-04 03:39:00,
2013-02-03 22:42:00,32.4,26.6,29.90,WNW,294,0.0,11.0,79,0.00,,---,0.02,VWS V14.00,2013-02-04 03:42:00,
2013-02-03 22:43:00,32.4,26.9,29.90,NNW,329,0.0,11.0,80,0.00,,---,0.02,VWS V14.00,2013-02-04 03:43:00,
2013-02-03 22:44:00,32.4,26.9,29.89,North,355,5.0,11.0,80,0.00,,---,0.02,VWS V14.00,2013-02-04 03:44:00,
2013-02-03 22:47:00,32.3,25.9,29.90,NW,310,1.0,11.0,77,0.00,,---,0.02,VWS V14.00,2013-02-04 03:47:00,
2013-02-03 22:48:00,32.3,25.9,29.89,NNW,327,1.0,11.0,77,0.00,,---,0.02,VWS V14.00,2013-02-04 03:48:00,
2013-02-03 22:49:00,32.3,25.9,29.89,NW,318,0.0,11.0,77,0.00,,---,0.02,VWS V14.00,2013-02-04 03:49:00,
2013-02-03 22:52:00,32.2,26.1,29.90,NW,317,0.0,11.0,78,0.00,,---,0.02,VWS V14.00,2013-02-04 03:52:00,
2013-02-03 22:53:00,32.2,26.1,29.90,NNW,338,0.0,11.0,78,0.00,,---,0.02,VWS V14.00,2013-02-04 03:53:00,
2013-02-03 22:54:00,32.1,26.0,29.90,NNW,342,3.0,11.0,78,0.00,,---,0.02,VWS V14.00,2013-02-04 03:54:00,
2013-02-03 22:55:00,32.1,26.0,29.90,North,350,1.0,11.0,78,0.00,,---,0.02,VWS V14.00,2013-02-04 03:55:00,
2013-02-03 22:57:00,32.1,26.0,29.90,NNW,341,0.0,11.0,78,0.00,,---,0.02,VWS V14.00,2013-02-04 03:57:00,
2013-02-03 22:58:00,32.1,26.3,29.90,NNW,341,0.0,11.0,79,0.00,,---,0.02,VWS V14.00,2013-02-04 03:58:00,
2013-02-03 22:59:00,32.1,26.0,29.90,NNW,340,0.0,11.0,78,0.00,,---,0.02,VWS V14.00,2013-02-04 03:59:00,
2013-02-03 23:00:00,32.1,26.3,29.91,NNW,340,0.0,11.0,79,0.00,,---,0.02,VWS V14.00,2013-02-04 04:00:00,
2013-02-03 23:02:00,32.0,26.2,29.91,NNW,339,3.0,11.0,79,0.00,,---,0.02,VWS V14.00,2013-02-04 04:02:00,
2013-02-03 23:03:00,32.0,26.2,29.91,WNW,290,1.0,11.0,79,0.00,,---,0.02,VWS V14.00,2013-02-04 04:03:00,
2013-02-03 23:05:00,32.0,26.2,29.91,NW,317,1.0,11.0,79,0.00,,---,0.02,VWS V14.00,2013-02-04 04:05:00,
2013-02-03 23:07:00,31.8,25.7,29.91,NNW,329,0.0,3.0,78,0.00,,---,0.02,VWS V14.00,2013-02-04 04:07:00,
2013-02-03 23:08:00,31.8,25.7,29.91,NNW,346,2.0,4.0,78,0.00,,---,0.02,VWS V14.00,2013-02-04 04:08:00,
2013-02-03 23:10:00,31.8,25.7,29.91,NNW,347,0.0,4.0,78,0.00,,---,0.02,VWS V14.00,2013-02-04 04:10:00,
2013-02-03 23:12:00,31.7,25.6,29.91,NW,317,3.0,6.0,78,0.00,,---,0.02,VWS V14.00,2013-02-04 04:12:00,
2013-02-03 23:14:00,31.5,25.4,29.91,NW,314,0.0,9.0,78,0.00,,---,0.02,VWS V14.00,2013-02-04 04:14:00,
2013-02-03 23:15:00,31.5,25.4,29.91,NW,314,0.0,9.0,78,0.00,,---,0.02,VWS V14.00,2013-02-04 04:15:00,
2013-02-03 23:16:00,31.5,25.4,29.91,NNW,338,2.0,9.0,78,0.00,,---,0.02,VWS V14.00,2013-02-04 04:16:00,
2013-02-03 23:18:00,31.4,25.4,29.91,North,355,4.0,9.0,78,0.00,,---,0.02,VWS V14.00,2013-02-04 04:18:00,
2013-02-03 23:20:00,31.3,25.2,29.91,NNW,333,0.0,9.0,78,0.00,,---,0.02,VWS V14.00,2013-02-04 04:20:00,
2013-02-03 23:21:00,31.2,25.1,29.91,NNW,345,0.0,9.0,78,0.00,,---,0.02,VWS V14.00,2013-02-04 04:21:00,
2013-02-03 23:23:00,31.1,25.0,29.91,NNW,341,0.0,9.0,78,0.00,,---,0.02,VWS V14.00,2013-02-04 04:23:00,
2013-02-03 23:25:00,31.1,25.0,29.91,NW,317,1.0,9.0,78,0.00,,---,0.02,VWS V14.00,2013-02-04 04:25:00,
2013-02-03 23:26:00,31.0,25.0,29.91,NNW,346,4.0,9.0,78,0.00,,---,0.02,VWS V14.00,2013-02-04 04:26:00,
2013-02-03 23:29:00,30.9,24.5,29.91,NW,315,5.0,9.0,77,0.00,,---,0.02,VWS V14.00,2013-02-04 04:29:00,
2013-02-03 23:30:00,30.8,24.8,29.91,NNW,336,2.0,9.0,78,0.00,,---,0.02,VWS V14.00,2013-02-04 04:30:00,
2013-02-03 23:31:00,30.8,24.8,29.91,NNW,346,0.0,9.0,78,0.00,,---,0.02,VWS V14.00,2013-02-04 04:31:00,
2013-02-03 23:34:00,30.7,24.7,29.91,NNW,336,1.0,9.0,78,0.00,,---,0.02,VWS V14.00,2013-02-04 04:34:00,
2013-02-03 23:36:00,30.7,24.7,29.92,NNW,328,2.0,9.0,78,0.00,,---,0.02,VWS V14.00,2013-02-04 04:36:00,
2013-02-03 23:37:00,30.7,24.7,29.92,North,349,1.0,4.0,78,0.00,,---,0.02,VWS V14.00,2013-02-04 04:37:00,
2013-02-03 23:39:00,30.6,24.6,29.92,NW,314,2.0,4.0,78,0.00,,---,0.02,VWS V14.00,2013-02-04 04:39:00,
2013-02-03 23:41:00,30.5,24.5,29.92,NW,315,0.0,4.0,78,0.00,,---,0.02,VWS V14.00,2013-02-04 04:41:00,
2013-02-03 23:42:00,30.5,24.5,29.92,NNW,332,0.0,4.0,78,0.00,,---,0.02,VWS V14.00,2013-02-04 04:42:00,
2013-02-03 23:43:00,30.5,24.5,29.92,NNW,338,0.0,4.0,78,0.00,,---,0.02,VWS V14.00,2013-02-04 04:43:00,
2013-02-03 23:44:00,30.5,24.8,29.92,NNE,14,2.0,4.0,79,0.00,,---,0.02,VWS V14.00,2013-02-04 04:44:00,
2013-02-03 23:47:00,30.5,24.8,29.92,NNW,327,0.0,4.0,79,0.00,,---,0.02,VWS V14.00,2013-02-04 04:47:00,
2013-02-03 23:49:00,30.5,24.5,29.92,NW,308,2.0,5.0,78,0.00,,---,0.02,VWS V14.00,2013-02-04 04:49:00,
2013-02-03 23:50:00,30.5,24.5,29.92,NW,316,0.0,5.0,78,0.00,,---,0.02,VWS V14.00,2013-02-04 04:50:00,
2013-02-03 23:52:00,30.5,24.5,29.92,NNE,24,2.0,5.0,78,0.00,,---,0.02,VWS V14.00,2013-02-04 04:52:00,
2013-02-03 23:53:00,30.5,24.5,29.92,NNW,339,3.0,5.0,78,0.00,,---,0.02,VWS V14.00,2013-02-04 04:53:00,
2013-02-03 23:55:00,30.5,24.8,29.93,NNE,16,0.0,5.0,79,0.00,,---,0.02,VWS V14.00,2013-02-04 04:55:00,
2013-02-03 23:57:00,30.5,24.8,29.93,NNE,15,1.0,5.0,79,0.00,,---,0.02,VWS V14.00,2013-02-04 04:57:00,
2013-02-03 23:58:00,30.5,24.8,29.93,NNE,16,1.0,5.0,79,0.00,,---,0.02,VWS V14.00,2013-02-04 04:58:00,